<?xml version="1.0" encoding="UTF-8" standalone="no" ?>
<gpx xmlns="http://www.topografix.com/GPX/1/1" xmlns:xsi="http://www.w3.org/2001/XMLSchema-instance" xsi:schemaLocation="http://www.topografix.com/GPX/1/1 http://www.topografix.com/GPX/1/1/gpx.xsd" version="1.1" creator="VisuGPX - https://www.visugpx.com">
  <metadata>
    <name>boucle dans Houlgate</name>
    <desc><![CDATA[beau point de vue sur Houlgate qui a un pied dans la campagne et un autre dans la mer]]></desc>
  </metadata>
  <trk>
    <name><![CDATA[boucle dans Houlgate_1]]></name>
    <trkseg>
      <trkpt lat="49.30155" lon="-0.07774">
        <ele>11</ele>
        <time>2018-04-18T08:30:48Z</time>
      </trkpt>
      <trkpt lat="49.30155" lon="-0.07774">
        <ele>11</ele>
        <time>2018-04-18T08:30:48Z</time>
      </trkpt>
      <trkpt lat="49.30147" lon="-0.07766">
        <ele>11</ele>
        <time>2018-04-18T08:30:55Z</time>
      </trkpt>
      <trkpt lat="49.30141" lon="-0.07756">
        <ele>11</ele>
        <time>2018-04-18T08:30:58Z</time>
      </trkpt>
      <trkpt lat="49.30136" lon="-0.07746">
        <ele>12</ele>
        <time>2018-04-18T08:31:02Z</time>
      </trkpt>
      <trkpt lat="49.30139" lon="-0.07735">
        <ele>12</ele>
        <time>2018-04-18T08:31:09Z</time>
      </trkpt>
      <trkpt lat="49.30142" lon="-0.07726">
        <ele>12</ele>
        <time>2018-04-18T08:31:16Z</time>
      </trkpt>
      <trkpt lat="49.30135" lon="-0.07719">
        <ele>12</ele>
        <time>2018-04-18T08:31:22Z</time>
      </trkpt>
      <trkpt lat="49.30131" lon="-0.0771">
        <ele>12</ele>
        <time>2018-04-18T08:31:29Z</time>
      </trkpt>
      <trkpt lat="49.30134" lon="-0.07701">
        <ele>12</ele>
        <time>2018-04-18T08:31:36Z</time>
      </trkpt>
      <trkpt lat="49.30136" lon="-0.07694">
        <ele>12</ele>
        <time>2018-04-18T08:31:43Z</time>
      </trkpt>
      <trkpt lat="49.30133" lon="-0.07691">
        <ele>12</ele>
        <time>2018-04-18T08:31:50Z</time>
      </trkpt>
      <trkpt lat="49.30129" lon="-0.07682">
        <ele>12</ele>
        <time>2018-04-18T08:31:54Z</time>
      </trkpt>
      <trkpt lat="49.30125" lon="-0.07672">
        <ele>12</ele>
        <time>2018-04-18T08:31:58Z</time>
      </trkpt>
      <trkpt lat="49.30123" lon="-0.07662">
        <ele>13</ele>
        <time>2018-04-18T08:32:05Z</time>
      </trkpt>
      <trkpt lat="49.30123" lon="-0.07653">
        <ele>13</ele>
        <time>2018-04-18T08:32:12Z</time>
      </trkpt>
      <trkpt lat="49.30122" lon="-0.07641">
        <ele>13</ele>
        <time>2018-04-18T08:32:19Z</time>
      </trkpt>
      <trkpt lat="49.3012" lon="-0.0763">
        <ele>13</ele>
        <time>2018-04-18T08:32:25Z</time>
      </trkpt>
      <trkpt lat="49.30116" lon="-0.07618">
        <ele>14</ele>
        <time>2018-04-18T08:32:30Z</time>
      </trkpt>
      <trkpt lat="49.30111" lon="-0.07609">
        <ele>14</ele>
        <time>2018-04-18T08:32:36Z</time>
      </trkpt>
      <trkpt lat="49.30104" lon="-0.07606">
        <ele>14</ele>
        <time>2018-04-18T08:32:43Z</time>
      </trkpt>
      <trkpt lat="49.30105" lon="-0.07596">
        <ele>14</ele>
        <time>2018-04-18T08:32:50Z</time>
      </trkpt>
      <trkpt lat="49.301" lon="-0.07586">
        <ele>14</ele>
        <time>2018-04-18T08:32:54Z</time>
      </trkpt>
      <trkpt lat="49.30095" lon="-0.07579">
        <ele>14</ele>
        <time>2018-04-18T08:32:58Z</time>
      </trkpt>
      <trkpt lat="49.30091" lon="-0.07572">
        <ele>14</ele>
        <time>2018-04-18T08:33:05Z</time>
      </trkpt>
      <trkpt lat="49.30087" lon="-0.0756">
        <ele>14</ele>
        <time>2018-04-18T08:33:12Z</time>
      </trkpt>
      <trkpt lat="49.30084" lon="-0.07549">
        <ele>14</ele>
        <time>2018-04-18T08:33:19Z</time>
      </trkpt>
      <trkpt lat="49.30081" lon="-0.07542">
        <ele>14</ele>
        <time>2018-04-18T08:33:26Z</time>
      </trkpt>
      <trkpt lat="49.3008" lon="-0.07538">
        <ele>14</ele>
        <time>2018-04-18T08:33:33Z</time>
      </trkpt>
      <trkpt lat="49.30079" lon="-0.07535">
        <ele>14</ele>
        <time>2018-04-18T08:33:40Z</time>
      </trkpt>
      <trkpt lat="49.30072" lon="-0.07529">
        <ele>14</ele>
        <time>2018-04-18T08:33:47Z</time>
      </trkpt>
      <trkpt lat="49.30065" lon="-0.07526">
        <ele>14</ele>
        <time>2018-04-18T08:33:53Z</time>
      </trkpt>
      <trkpt lat="49.30063" lon="-0.07525">
        <ele>14</ele>
        <time>2018-04-18T08:34:00Z</time>
      </trkpt>
      <trkpt lat="49.3006" lon="-0.07529">
        <ele>14</ele>
        <time>2018-04-18T08:34:07Z</time>
      </trkpt>
      <trkpt lat="49.30063" lon="-0.07533">
        <ele>14</ele>
        <time>2018-04-18T08:34:14Z</time>
      </trkpt>
      <trkpt lat="49.30063" lon="-0.07533">
        <ele>14</ele>
        <time>2018-04-18T08:34:21Z</time>
      </trkpt>
      <trkpt lat="49.30056" lon="-0.07537">
        <ele>14</ele>
        <time>2018-04-18T08:34:30Z</time>
      </trkpt>
      <trkpt lat="49.30049" lon="-0.07541">
        <ele>14</ele>
        <time>2018-04-18T08:34:37Z</time>
      </trkpt>
      <trkpt lat="49.30045" lon="-0.07545">
        <ele>14</ele>
        <time>2018-04-18T08:34:44Z</time>
      </trkpt>
      <trkpt lat="49.30037" lon="-0.0755">
        <ele>14</ele>
        <time>2018-04-18T08:34:51Z</time>
      </trkpt>
      <trkpt lat="49.3003" lon="-0.07552">
        <ele>14</ele>
        <time>2018-04-18T08:34:57Z</time>
      </trkpt>
      <trkpt lat="49.30022" lon="-0.07555">
        <ele>13</ele>
        <time>2018-04-18T08:35:02Z</time>
      </trkpt>
      <trkpt lat="49.30015" lon="-0.07559">
        <ele>13</ele>
        <time>2018-04-18T08:35:09Z</time>
      </trkpt>
      <trkpt lat="49.30008" lon="-0.07562">
        <ele>13</ele>
        <time>2018-04-18T08:35:16Z</time>
      </trkpt>
      <trkpt lat="49.30002" lon="-0.07569">
        <ele>13</ele>
        <time>2018-04-18T08:35:22Z</time>
      </trkpt>
      <trkpt lat="49.29995" lon="-0.07573">
        <ele>12</ele>
        <time>2018-04-18T08:35:29Z</time>
      </trkpt>
      <trkpt lat="49.29989" lon="-0.07574">
        <ele>12</ele>
        <time>2018-04-18T08:35:36Z</time>
      </trkpt>
      <trkpt lat="49.29983" lon="-0.0758">
        <ele>12</ele>
        <time>2018-04-18T08:35:42Z</time>
      </trkpt>
      <trkpt lat="49.29975" lon="-0.0758">
        <ele>12</ele>
        <time>2018-04-18T08:35:47Z</time>
      </trkpt>
      <trkpt lat="49.29968" lon="-0.07585">
        <ele>11</ele>
        <time>2018-04-18T08:35:54Z</time>
      </trkpt>
      <trkpt lat="49.2996" lon="-0.07588">
        <ele>11</ele>
        <time>2018-04-18T08:36:01Z</time>
      </trkpt>
      <trkpt lat="49.29955" lon="-0.07596">
        <ele>11</ele>
        <time>2018-04-18T08:36:07Z</time>
      </trkpt>
      <trkpt lat="49.29953" lon="-0.07602">
        <ele>11</ele>
        <time>2018-04-18T08:36:14Z</time>
      </trkpt>
      <trkpt lat="49.29946" lon="-0.07607">
        <ele>11</ele>
        <time>2018-04-18T08:36:21Z</time>
      </trkpt>
      <trkpt lat="49.29941" lon="-0.07613">
        <ele>11</ele>
        <time>2018-04-18T08:36:28Z</time>
      </trkpt>
      <trkpt lat="49.29934" lon="-0.07616">
        <ele>10</ele>
        <time>2018-04-18T08:36:35Z</time>
      </trkpt>
      <trkpt lat="49.29926" lon="-0.07619">
        <ele>10</ele>
        <time>2018-04-18T08:36:40Z</time>
      </trkpt>
      <trkpt lat="49.29918" lon="-0.07622">
        <ele>10</ele>
        <time>2018-04-18T08:36:46Z</time>
      </trkpt>
      <trkpt lat="49.2991" lon="-0.07624">
        <ele>10</ele>
        <time>2018-04-18T08:36:52Z</time>
      </trkpt>
      <trkpt lat="49.29903" lon="-0.07626">
        <ele>10</ele>
        <time>2018-04-18T08:36:57Z</time>
      </trkpt>
      <trkpt lat="49.29895" lon="-0.07631">
        <ele>10</ele>
        <time>2018-04-18T08:37:03Z</time>
      </trkpt>
      <trkpt lat="49.2989" lon="-0.07638">
        <ele>10</ele>
        <time>2018-04-18T08:37:10Z</time>
      </trkpt>
      <trkpt lat="49.29883" lon="-0.07641">
        <ele>10</ele>
        <time>2018-04-18T08:37:17Z</time>
      </trkpt>
      <trkpt lat="49.29876" lon="-0.07641">
        <ele>10</ele>
        <time>2018-04-18T08:37:24Z</time>
      </trkpt>
      <trkpt lat="49.29876" lon="-0.0764">
        <ele>10</ele>
        <time>2018-04-18T08:37:31Z</time>
      </trkpt>
      <trkpt lat="49.29867" lon="-0.07638">
        <ele>11</ele>
        <time>2018-04-18T08:37:36Z</time>
      </trkpt>
      <trkpt lat="49.29859" lon="-0.07635">
        <ele>11</ele>
        <time>2018-04-18T08:37:41Z</time>
      </trkpt>
      <trkpt lat="49.29852" lon="-0.07643">
        <ele>11</ele>
        <time>2018-04-18T08:37:47Z</time>
      </trkpt>
      <trkpt lat="49.29846" lon="-0.07652">
        <ele>11</ele>
        <time>2018-04-18T08:37:53Z</time>
      </trkpt>
      <trkpt lat="49.29841" lon="-0.07659">
        <ele>11</ele>
        <time>2018-04-18T08:37:59Z</time>
      </trkpt>
      <trkpt lat="49.29835" lon="-0.07664">
        <ele>11</ele>
        <time>2018-04-18T08:38:06Z</time>
      </trkpt>
      <trkpt lat="49.29827" lon="-0.07667">
        <ele>11</ele>
        <time>2018-04-18T08:38:13Z</time>
      </trkpt>
      <trkpt lat="49.29821" lon="-0.07675">
        <ele>11</ele>
        <time>2018-04-18T08:38:19Z</time>
      </trkpt>
      <trkpt lat="49.29814" lon="-0.0768">
        <ele>11</ele>
        <time>2018-04-18T08:38:24Z</time>
      </trkpt>
      <trkpt lat="49.29807" lon="-0.07685">
        <ele>11</ele>
        <time>2018-04-18T08:38:30Z</time>
      </trkpt>
      <trkpt lat="49.29799" lon="-0.07691">
        <ele>12</ele>
        <time>2018-04-18T08:38:36Z</time>
      </trkpt>
      <trkpt lat="49.29793" lon="-0.07696">
        <ele>12</ele>
        <time>2018-04-18T08:38:42Z</time>
      </trkpt>
      <trkpt lat="49.29785" lon="-0.07702">
        <ele>12</ele>
        <time>2018-04-18T08:38:48Z</time>
      </trkpt>
      <trkpt lat="49.29779" lon="-0.07709">
        <ele>12</ele>
        <time>2018-04-18T08:38:54Z</time>
      </trkpt>
      <trkpt lat="49.29772" lon="-0.07715">
        <ele>12</ele>
        <time>2018-04-18T08:39:00Z</time>
      </trkpt>
      <trkpt lat="49.29765" lon="-0.07721">
        <ele>12</ele>
        <time>2018-04-18T08:39:06Z</time>
      </trkpt>
      <trkpt lat="49.29759" lon="-0.07729">
        <ele>11</ele>
        <time>2018-04-18T08:39:13Z</time>
      </trkpt>
      <trkpt lat="49.29755" lon="-0.07739">
        <ele>11</ele>
        <time>2018-04-18T08:39:19Z</time>
      </trkpt>
      <trkpt lat="49.29751" lon="-0.0775">
        <ele>11</ele>
        <time>2018-04-18T08:39:25Z</time>
      </trkpt>
      <trkpt lat="49.29747" lon="-0.0776">
        <ele>11</ele>
        <time>2018-04-18T08:39:32Z</time>
      </trkpt>
      <trkpt lat="49.29742" lon="-0.07768">
        <ele>11</ele>
        <time>2018-04-18T08:39:39Z</time>
      </trkpt>
      <trkpt lat="49.29736" lon="-0.07773">
        <ele>11</ele>
        <time>2018-04-18T08:39:46Z</time>
      </trkpt>
      <trkpt lat="49.29728" lon="-0.07777">
        <ele>11</ele>
        <time>2018-04-18T08:39:53Z</time>
      </trkpt>
      <trkpt lat="49.29721" lon="-0.07785">
        <ele>11</ele>
        <time>2018-04-18T08:39:59Z</time>
      </trkpt>
      <trkpt lat="49.29716" lon="-0.07793">
        <ele>11</ele>
        <time>2018-04-18T08:40:05Z</time>
      </trkpt>
      <trkpt lat="49.29711" lon="-0.07797">
        <ele>11</ele>
        <time>2018-04-18T08:40:12Z</time>
      </trkpt>
      <trkpt lat="49.29705" lon="-0.07804">
        <ele>11</ele>
        <time>2018-04-18T08:40:18Z</time>
      </trkpt>
      <trkpt lat="49.29698" lon="-0.07808">
        <ele>12</ele>
        <time>2018-04-18T08:40:24Z</time>
      </trkpt>
      <trkpt lat="49.29691" lon="-0.0781">
        <ele>12</ele>
        <time>2018-04-18T08:40:30Z</time>
      </trkpt>
      <trkpt lat="49.29683" lon="-0.07811">
        <ele>12</ele>
        <time>2018-04-18T08:40:35Z</time>
      </trkpt>
      <trkpt lat="49.29678" lon="-0.07816">
        <ele>12</ele>
        <time>2018-04-18T08:40:42Z</time>
      </trkpt>
      <trkpt lat="49.2967" lon="-0.07821">
        <ele>12</ele>
        <time>2018-04-18T08:40:49Z</time>
      </trkpt>
      <trkpt lat="49.29667" lon="-0.07825">
        <ele>12</ele>
        <time>2018-04-18T08:40:56Z</time>
      </trkpt>
      <trkpt lat="49.29666" lon="-0.07825">
        <ele>12</ele>
        <time>2018-04-18T08:40:59Z</time>
      </trkpt>
      <trkpt lat="49.29661" lon="-0.07824">
        <ele>12</ele>
        <time>2018-04-18T08:41:07Z</time>
      </trkpt>
      <trkpt lat="49.2966" lon="-0.07825">
        <ele>12</ele>
        <time>2018-04-18T08:41:14Z</time>
      </trkpt>
      <trkpt lat="49.29652" lon="-0.07827">
        <ele>13</ele>
        <time>2018-04-18T08:41:20Z</time>
      </trkpt>
      <trkpt lat="49.29644" lon="-0.07831">
        <ele>13</ele>
        <time>2018-04-18T08:41:26Z</time>
      </trkpt>
      <trkpt lat="49.29637" lon="-0.07835">
        <ele>13</ele>
        <time>2018-04-18T08:41:32Z</time>
      </trkpt>
      <trkpt lat="49.2963" lon="-0.07841">
        <ele>13</ele>
        <time>2018-04-18T08:41:39Z</time>
      </trkpt>
      <trkpt lat="49.29623" lon="-0.07846">
        <ele>13</ele>
        <time>2018-04-18T08:41:45Z</time>
      </trkpt>
      <trkpt lat="49.29617" lon="-0.07851">
        <ele>13</ele>
        <time>2018-04-18T08:41:51Z</time>
      </trkpt>
      <trkpt lat="49.29609" lon="-0.07856">
        <ele>13</ele>
        <time>2018-04-18T08:41:56Z</time>
      </trkpt>
      <trkpt lat="49.29602" lon="-0.07861">
        <ele>13</ele>
        <time>2018-04-18T08:42:01Z</time>
      </trkpt>
      <trkpt lat="49.29595" lon="-0.07865">
        <ele>13</ele>
        <time>2018-04-18T08:42:08Z</time>
      </trkpt>
      <trkpt lat="49.29588" lon="-0.07872">
        <ele>13</ele>
        <time>2018-04-18T08:42:14Z</time>
      </trkpt>
      <trkpt lat="49.29582" lon="-0.07879">
        <ele>15</ele>
        <time>2018-04-18T08:42:21Z</time>
      </trkpt>
      <trkpt lat="49.29575" lon="-0.07888">
        <ele>15</ele>
        <time>2018-04-18T08:42:28Z</time>
      </trkpt>
      <trkpt lat="49.29567" lon="-0.07891">
        <ele>15</ele>
        <time>2018-04-18T08:42:33Z</time>
      </trkpt>
      <trkpt lat="49.29559" lon="-0.07896">
        <ele>15</ele>
        <time>2018-04-18T08:42:39Z</time>
      </trkpt>
      <trkpt lat="49.29552" lon="-0.079">
        <ele>15</ele>
        <time>2018-04-18T08:42:46Z</time>
      </trkpt>
      <trkpt lat="49.29544" lon="-0.07903">
        <ele>15</ele>
        <time>2018-04-18T08:42:53Z</time>
      </trkpt>
      <trkpt lat="49.29536" lon="-0.07906">
        <ele>15</ele>
        <time>2018-04-18T08:42:58Z</time>
      </trkpt>
      <trkpt lat="49.29529" lon="-0.07909">
        <ele>15</ele>
        <time>2018-04-18T08:43:04Z</time>
      </trkpt>
      <trkpt lat="49.29522" lon="-0.07913">
        <ele>15</ele>
        <time>2018-04-18T08:43:10Z</time>
      </trkpt>
      <trkpt lat="49.29514" lon="-0.07909">
        <ele>16</ele>
        <time>2018-04-18T08:43:17Z</time>
      </trkpt>
      <trkpt lat="49.29509" lon="-0.07906">
        <ele>16</ele>
        <time>2018-04-18T08:43:24Z</time>
      </trkpt>
      <trkpt lat="49.29506" lon="-0.07897">
        <ele>15</ele>
        <time>2018-04-18T08:43:31Z</time>
      </trkpt>
      <trkpt lat="49.29506" lon="-0.07891">
        <ele>15</ele>
        <time>2018-04-18T08:43:38Z</time>
      </trkpt>
      <trkpt lat="49.29508" lon="-0.07894">
        <ele>15</ele>
        <time>2018-04-18T08:43:45Z</time>
      </trkpt>
      <trkpt lat="49.29506" lon="-0.07884">
        <ele>15</ele>
        <time>2018-04-18T08:43:52Z</time>
      </trkpt>
      <trkpt lat="49.29504" lon="-0.07874">
        <ele>15</ele>
        <time>2018-04-18T08:43:57Z</time>
      </trkpt>
      <trkpt lat="49.295" lon="-0.07863">
        <ele>15</ele>
        <time>2018-04-18T08:44:02Z</time>
      </trkpt>
      <trkpt lat="49.29496" lon="-0.07853">
        <ele>17</ele>
        <time>2018-04-18T08:44:07Z</time>
      </trkpt>
      <trkpt lat="49.29494" lon="-0.07842">
        <ele>17</ele>
        <time>2018-04-18T08:44:12Z</time>
      </trkpt>
      <trkpt lat="49.29491" lon="-0.07836">
        <ele>17</ele>
        <time>2018-04-18T08:44:19Z</time>
      </trkpt>
      <trkpt lat="49.29487" lon="-0.07826">
        <ele>17</ele>
        <time>2018-04-18T08:44:26Z</time>
      </trkpt>
      <trkpt lat="49.29487" lon="-0.07814">
        <ele>18</ele>
        <time>2018-04-18T08:44:33Z</time>
      </trkpt>
      <trkpt lat="49.29485" lon="-0.07802">
        <ele>18</ele>
        <time>2018-04-18T08:44:40Z</time>
      </trkpt>
      <trkpt lat="49.29481" lon="-0.07793">
        <ele>18</ele>
        <time>2018-04-18T08:44:47Z</time>
      </trkpt>
      <trkpt lat="49.29477" lon="-0.07782">
        <ele>18</ele>
        <time>2018-04-18T08:44:54Z</time>
      </trkpt>
      <trkpt lat="49.29475" lon="-0.07778">
        <ele>19</ele>
        <time>2018-04-18T08:45:01Z</time>
      </trkpt>
      <trkpt lat="49.29471" lon="-0.07774">
        <ele>19</ele>
        <time>2018-04-18T08:45:08Z</time>
      </trkpt>
      <trkpt lat="49.29471" lon="-0.07774">
        <ele>19</ele>
        <time>2018-04-18T08:45:15Z</time>
      </trkpt>
      <trkpt lat="49.29467" lon="-0.07772">
        <ele>19</ele>
        <time>2018-04-18T08:45:25Z</time>
      </trkpt>
      <trkpt lat="49.29468" lon="-0.07771">
        <ele>19</ele>
        <time>2018-04-18T08:45:30Z</time>
      </trkpt>
      <trkpt lat="49.29466" lon="-0.0777">
        <ele>19</ele>
        <time>2018-04-18T08:45:40Z</time>
      </trkpt>
      <trkpt lat="49.2946" lon="-0.07763">
        <ele>19</ele>
        <time>2018-04-18T08:45:47Z</time>
      </trkpt>
      <trkpt lat="49.29457" lon="-0.07753">
        <ele>19</ele>
        <time>2018-04-18T08:45:54Z</time>
      </trkpt>
      <trkpt lat="49.29451" lon="-0.07752">
        <ele>19</ele>
        <time>2018-04-18T08:46:01Z</time>
      </trkpt>
      <trkpt lat="49.29451" lon="-0.07749">
        <ele>20</ele>
        <time>2018-04-18T08:46:08Z</time>
      </trkpt>
      <trkpt lat="49.29451" lon="-0.07749">
        <ele>20</ele>
        <time>2018-04-18T08:46:12Z</time>
      </trkpt>
      <trkpt lat="49.29451" lon="-0.07744">
        <ele>20</ele>
        <time>2018-04-18T08:46:19Z</time>
      </trkpt>
      <trkpt lat="49.29452" lon="-0.07743">
        <ele>20</ele>
        <time>2018-04-18T08:46:22Z</time>
      </trkpt>
      <trkpt lat="49.2945" lon="-0.07734">
        <ele>20</ele>
        <time>2018-04-18T08:46:30Z</time>
      </trkpt>
      <trkpt lat="49.29449" lon="-0.07726">
        <ele>20</ele>
        <time>2018-04-18T08:46:37Z</time>
      </trkpt>
      <trkpt lat="49.29447" lon="-0.07713">
        <ele>20</ele>
        <time>2018-04-18T08:46:44Z</time>
      </trkpt>
      <trkpt lat="49.29444" lon="-0.07703">
        <ele>20</ele>
        <time>2018-04-18T08:46:49Z</time>
      </trkpt>
      <trkpt lat="49.29439" lon="-0.07692">
        <ele>20</ele>
        <time>2018-04-18T08:46:55Z</time>
      </trkpt>
      <trkpt lat="49.29437" lon="-0.07682">
        <ele>21</ele>
        <time>2018-04-18T08:47:00Z</time>
      </trkpt>
      <trkpt lat="49.29434" lon="-0.07671">
        <ele>21</ele>
        <time>2018-04-18T08:47:04Z</time>
      </trkpt>
      <trkpt lat="49.29433" lon="-0.07667">
        <ele>21</ele>
        <time>2018-04-18T08:47:11Z</time>
      </trkpt>
      <trkpt lat="49.29431" lon="-0.07667">
        <ele>21</ele>
        <time>2018-04-18T08:47:18Z</time>
      </trkpt>
      <trkpt lat="49.29431" lon="-0.07667">
        <ele>21</ele>
        <time>2018-04-18T08:47:19Z</time>
      </trkpt>
      <trkpt lat="49.29434" lon="-0.07676">
        <ele>21</ele>
        <time>2018-04-18T08:48:13Z</time>
      </trkpt>
      <trkpt lat="49.29438" lon="-0.07688">
        <ele>20</ele>
        <time>2018-04-18T08:48:20Z</time>
      </trkpt>
      <trkpt lat="49.29442" lon="-0.07698">
        <ele>20</ele>
        <time>2018-04-18T08:48:26Z</time>
      </trkpt>
      <trkpt lat="49.29444" lon="-0.07709">
        <ele>20</ele>
        <time>2018-04-18T08:48:33Z</time>
      </trkpt>
      <trkpt lat="49.29447" lon="-0.0772">
        <ele>20</ele>
        <time>2018-04-18T08:48:40Z</time>
      </trkpt>
      <trkpt lat="49.29447" lon="-0.07727">
        <ele>20</ele>
        <time>2018-04-18T08:48:47Z</time>
      </trkpt>
      <trkpt lat="49.29448" lon="-0.07731">
        <ele>20</ele>
        <time>2018-04-18T08:48:54Z</time>
      </trkpt>
      <trkpt lat="49.29452" lon="-0.0774">
        <ele>20</ele>
        <time>2018-04-18T08:49:00Z</time>
      </trkpt>
      <trkpt lat="49.29456" lon="-0.07748">
        <ele>20</ele>
        <time>2018-04-18T08:49:07Z</time>
      </trkpt>
      <trkpt lat="49.29457" lon="-0.07752">
        <ele>19</ele>
        <time>2018-04-18T08:49:14Z</time>
      </trkpt>
      <trkpt lat="49.29457" lon="-0.07757">
        <ele>19</ele>
        <time>2018-04-18T08:49:21Z</time>
      </trkpt>
      <trkpt lat="49.2946" lon="-0.07767">
        <ele>19</ele>
        <time>2018-04-18T08:49:28Z</time>
      </trkpt>
      <trkpt lat="49.29463" lon="-0.07779">
        <ele>19</ele>
        <time>2018-04-18T08:49:35Z</time>
      </trkpt>
      <trkpt lat="49.29465" lon="-0.07789">
        <ele>19</ele>
        <time>2018-04-18T08:49:40Z</time>
      </trkpt>
      <trkpt lat="49.29469" lon="-0.078">
        <ele>18</ele>
        <time>2018-04-18T08:49:46Z</time>
      </trkpt>
      <trkpt lat="49.29473" lon="-0.07809">
        <ele>18</ele>
        <time>2018-04-18T08:49:53Z</time>
      </trkpt>
      <trkpt lat="49.29478" lon="-0.0782">
        <ele>18</ele>
        <time>2018-04-18T08:49:59Z</time>
      </trkpt>
      <trkpt lat="49.29482" lon="-0.0783">
        <ele>17</ele>
        <time>2018-04-18T08:50:05Z</time>
      </trkpt>
      <trkpt lat="49.29487" lon="-0.07839">
        <ele>17</ele>
        <time>2018-04-18T08:50:11Z</time>
      </trkpt>
      <trkpt lat="49.29489" lon="-0.07851">
        <ele>17</ele>
        <time>2018-04-18T08:50:18Z</time>
      </trkpt>
      <trkpt lat="49.29492" lon="-0.07861">
        <ele>17</ele>
        <time>2018-04-18T08:50:25Z</time>
      </trkpt>
      <trkpt lat="49.29489" lon="-0.07874">
        <ele>18</ele>
        <time>2018-04-18T08:50:30Z</time>
      </trkpt>
      <trkpt lat="49.29485" lon="-0.07884">
        <ele>18</ele>
        <time>2018-04-18T08:50:35Z</time>
      </trkpt>
      <trkpt lat="49.29483" lon="-0.07891">
        <ele>18</ele>
        <time>2018-04-18T08:50:42Z</time>
      </trkpt>
      <trkpt lat="49.29479" lon="-0.07893">
        <ele>18</ele>
        <time>2018-04-18T08:50:49Z</time>
      </trkpt>
      <trkpt lat="49.29479" lon="-0.07891">
        <ele>18</ele>
        <time>2018-04-18T08:50:56Z</time>
      </trkpt>
      <trkpt lat="49.29479" lon="-0.07891">
        <ele>18</ele>
        <time>2018-04-18T08:50:57Z</time>
      </trkpt>
      <trkpt lat="49.29483" lon="-0.07879">
        <ele>18</ele>
        <time>2018-04-18T08:51:44Z</time>
      </trkpt>
      <trkpt lat="49.29489" lon="-0.07874">
        <ele>18</ele>
        <time>2018-04-18T08:51:50Z</time>
      </trkpt>
      <trkpt lat="49.29492" lon="-0.07863">
        <ele>17</ele>
        <time>2018-04-18T08:51:57Z</time>
      </trkpt>
      <trkpt lat="49.29489" lon="-0.07853">
        <ele>17</ele>
        <time>2018-04-18T08:52:02Z</time>
      </trkpt>
      <trkpt lat="49.29486" lon="-0.07841">
        <ele>17</ele>
        <time>2018-04-18T08:52:08Z</time>
      </trkpt>
      <trkpt lat="49.29482" lon="-0.0783">
        <ele>17</ele>
        <time>2018-04-18T08:52:14Z</time>
      </trkpt>
      <trkpt lat="49.29479" lon="-0.0782">
        <ele>18</ele>
        <time>2018-04-18T08:52:21Z</time>
      </trkpt>
      <trkpt lat="49.29475" lon="-0.07809">
        <ele>18</ele>
        <time>2018-04-18T08:52:28Z</time>
      </trkpt>
      <trkpt lat="49.29472" lon="-0.07797">
        <ele>18</ele>
        <time>2018-04-18T08:52:34Z</time>
      </trkpt>
      <trkpt lat="49.29468" lon="-0.07787">
        <ele>19</ele>
        <time>2018-04-18T08:52:40Z</time>
      </trkpt>
      <trkpt lat="49.29464" lon="-0.0778">
        <ele>19</ele>
        <time>2018-04-18T08:52:47Z</time>
      </trkpt>
      <trkpt lat="49.29461" lon="-0.07773">
        <ele>19</ele>
        <time>2018-04-18T08:52:54Z</time>
      </trkpt>
      <trkpt lat="49.29457" lon="-0.07766">
        <ele>19</ele>
        <time>2018-04-18T08:53:01Z</time>
      </trkpt>
      <trkpt lat="49.29452" lon="-0.07758">
        <ele>19</ele>
        <time>2018-04-18T08:53:08Z</time>
      </trkpt>
      <trkpt lat="49.2945" lon="-0.07754">
        <ele>19</ele>
        <time>2018-04-18T08:53:15Z</time>
      </trkpt>
      <trkpt lat="49.29445" lon="-0.07755">
        <ele>19</ele>
        <time>2018-04-18T08:53:22Z</time>
      </trkpt>
      <trkpt lat="49.29442" lon="-0.07754">
        <ele>20</ele>
        <time>2018-04-18T08:53:29Z</time>
      </trkpt>
      <trkpt lat="49.29448" lon="-0.07753">
        <ele>19</ele>
        <time>2018-04-18T08:53:36Z</time>
      </trkpt>
      <trkpt lat="49.29455" lon="-0.07757">
        <ele>19</ele>
        <time>2018-04-18T08:53:43Z</time>
      </trkpt>
      <trkpt lat="49.29455" lon="-0.07759">
        <ele>19</ele>
        <time>2018-04-18T08:53:50Z</time>
      </trkpt>
      <trkpt lat="49.29458" lon="-0.0776">
        <ele>19</ele>
        <time>2018-04-18T08:53:59Z</time>
      </trkpt>
      <trkpt lat="49.2946" lon="-0.0776">
        <ele>19</ele>
        <time>2018-04-18T08:54:06Z</time>
      </trkpt>
      <trkpt lat="49.2946" lon="-0.0776">
        <ele>19</ele>
        <time>2018-04-18T08:54:07Z</time>
      </trkpt>
      <trkpt lat="49.29462" lon="-0.07764">
        <ele>19</ele>
        <time>2018-04-18T08:54:16Z</time>
      </trkpt>
      <trkpt lat="49.29462" lon="-0.07774">
        <ele>19</ele>
        <time>2018-04-18T08:54:23Z</time>
      </trkpt>
      <trkpt lat="49.29466" lon="-0.07785">
        <ele>19</ele>
        <time>2018-04-18T08:54:28Z</time>
      </trkpt>
      <trkpt lat="49.29469" lon="-0.07797">
        <ele>18</ele>
        <time>2018-04-18T08:54:35Z</time>
      </trkpt>
      <trkpt lat="49.29471" lon="-0.07804">
        <ele>18</ele>
        <time>2018-04-18T08:54:42Z</time>
      </trkpt>
      <trkpt lat="49.29475" lon="-0.07814">
        <ele>18</ele>
        <time>2018-04-18T08:54:47Z</time>
      </trkpt>
      <trkpt lat="49.29481" lon="-0.07823">
        <ele>18</ele>
        <time>2018-04-18T08:54:51Z</time>
      </trkpt>
      <trkpt lat="49.29485" lon="-0.07833">
        <ele>17</ele>
        <time>2018-04-18T08:54:57Z</time>
      </trkpt>
      <trkpt lat="49.29485" lon="-0.07839">
        <ele>17</ele>
        <time>2018-04-18T08:55:04Z</time>
      </trkpt>
      <trkpt lat="49.29481" lon="-0.07844">
        <ele>17</ele>
        <time>2018-04-18T08:55:11Z</time>
      </trkpt>
      <trkpt lat="49.29473" lon="-0.07846">
        <ele>18</ele>
        <time>2018-04-18T08:55:17Z</time>
      </trkpt>
      <trkpt lat="49.29467" lon="-0.07851">
        <ele>18</ele>
        <time>2018-04-18T08:55:24Z</time>
      </trkpt>
      <trkpt lat="49.2946" lon="-0.07855">
        <ele>18</ele>
        <time>2018-04-18T08:55:30Z</time>
      </trkpt>
      <trkpt lat="49.29455" lon="-0.07847">
        <ele>18</ele>
        <time>2018-04-18T08:55:37Z</time>
      </trkpt>
      <trkpt lat="49.29454" lon="-0.07839">
        <ele>18</ele>
        <time>2018-04-18T08:55:44Z</time>
      </trkpt>
      <trkpt lat="49.29449" lon="-0.07833">
        <ele>19</ele>
        <time>2018-04-18T08:55:51Z</time>
      </trkpt>
      <trkpt lat="49.29442" lon="-0.07829">
        <ele>19</ele>
        <time>2018-04-18T08:55:57Z</time>
      </trkpt>
      <trkpt lat="49.29434" lon="-0.07826">
        <ele>19</ele>
        <time>2018-04-18T08:56:04Z</time>
      </trkpt>
      <trkpt lat="49.29427" lon="-0.07824">
        <ele>19</ele>
        <time>2018-04-18T08:56:11Z</time>
      </trkpt>
      <trkpt lat="49.29422" lon="-0.07824">
        <ele>20</ele>
        <time>2018-04-18T08:56:18Z</time>
      </trkpt>
      <trkpt lat="49.2942" lon="-0.07825">
        <ele>20</ele>
        <time>2018-04-18T08:56:25Z</time>
      </trkpt>
      <trkpt lat="49.2942" lon="-0.07825">
        <ele>20</ele>
        <time>2018-04-18T08:56:26Z</time>
      </trkpt>
      <trkpt lat="49.2942" lon="-0.07824">
        <ele>20</ele>
        <time>2018-04-18T08:56:47Z</time>
      </trkpt>
      <trkpt lat="49.2942" lon="-0.07824">
        <ele>20</ele>
        <time>2018-04-18T08:56:48Z</time>
      </trkpt>
      <trkpt lat="49.29417" lon="-0.07817">
        <ele>21</ele>
        <time>2018-04-18T08:57:25Z</time>
      </trkpt>
      <trkpt lat="49.29413" lon="-0.07813">
        <ele>22</ele>
        <time>2018-04-18T08:57:32Z</time>
      </trkpt>
      <trkpt lat="49.29413" lon="-0.07814">
        <ele>22</ele>
        <time>2018-04-18T08:57:39Z</time>
      </trkpt>
      <trkpt lat="49.29413" lon="-0.07814">
        <ele>22</ele>
        <time>2018-04-18T08:57:46Z</time>
      </trkpt>
      <trkpt lat="49.29413" lon="-0.07815">
        <ele>22</ele>
        <time>2018-04-18T08:57:56Z</time>
      </trkpt>
      <trkpt lat="49.29413" lon="-0.07815">
        <ele>22</ele>
        <time>2018-04-18T08:57:57Z</time>
      </trkpt>
      <trkpt lat="49.29413" lon="-0.07816">
        <ele>21</ele>
        <time>2018-04-18T08:58:19Z</time>
      </trkpt>
      <trkpt lat="49.29404" lon="-0.07816">
        <ele>22</ele>
        <time>2018-04-18T08:58:26Z</time>
      </trkpt>
      <trkpt lat="49.29396" lon="-0.07814">
        <ele>22</ele>
        <time>2018-04-18T08:58:32Z</time>
      </trkpt>
      <trkpt lat="49.29389" lon="-0.07814">
        <ele>22</ele>
        <time>2018-04-18T08:58:39Z</time>
      </trkpt>
      <trkpt lat="49.29381" lon="-0.07816">
        <ele>23</ele>
        <time>2018-04-18T08:58:46Z</time>
      </trkpt>
      <trkpt lat="49.29374" lon="-0.07813">
        <ele>23</ele>
        <time>2018-04-18T08:58:53Z</time>
      </trkpt>
      <trkpt lat="49.29367" lon="-0.07807">
        <ele>23</ele>
        <time>2018-04-18T08:59:00Z</time>
      </trkpt>
      <trkpt lat="49.29361" lon="-0.07805">
        <ele>23</ele>
        <time>2018-04-18T08:59:07Z</time>
      </trkpt>
      <trkpt lat="49.29354" lon="-0.07803">
        <ele>24</ele>
        <time>2018-04-18T08:59:13Z</time>
      </trkpt>
      <trkpt lat="49.29347" lon="-0.07799">
        <ele>24</ele>
        <time>2018-04-18T08:59:19Z</time>
      </trkpt>
      <trkpt lat="49.29345" lon="-0.07793">
        <ele>24</ele>
        <time>2018-04-18T08:59:26Z</time>
      </trkpt>
      <trkpt lat="49.29349" lon="-0.07784">
        <ele>24</ele>
        <time>2018-04-18T08:59:33Z</time>
      </trkpt>
      <trkpt lat="49.29351" lon="-0.07773">
        <ele>24</ele>
        <time>2018-04-18T08:59:40Z</time>
      </trkpt>
      <trkpt lat="49.29353" lon="-0.07761">
        <ele>24</ele>
        <time>2018-04-18T08:59:47Z</time>
      </trkpt>
      <trkpt lat="49.29357" lon="-0.07751">
        <ele>24</ele>
        <time>2018-04-18T08:59:53Z</time>
      </trkpt>
      <trkpt lat="49.29361" lon="-0.07741">
        <ele>24</ele>
        <time>2018-04-18T09:00:00Z</time>
      </trkpt>
      <trkpt lat="49.29363" lon="-0.07731">
        <ele>24</ele>
        <time>2018-04-18T09:00:06Z</time>
      </trkpt>
      <trkpt lat="49.29364" lon="-0.0772">
        <ele>24</ele>
        <time>2018-04-18T09:00:13Z</time>
      </trkpt>
      <trkpt lat="49.29364" lon="-0.07707">
        <ele>24</ele>
        <time>2018-04-18T09:00:19Z</time>
      </trkpt>
      <trkpt lat="49.29365" lon="-0.07696">
        <ele>24</ele>
        <time>2018-04-18T09:00:25Z</time>
      </trkpt>
      <trkpt lat="49.29366" lon="-0.07684">
        <ele>24</ele>
        <time>2018-04-18T09:00:31Z</time>
      </trkpt>
      <trkpt lat="49.29362" lon="-0.07673">
        <ele>24</ele>
        <time>2018-04-18T09:00:36Z</time>
      </trkpt>
      <trkpt lat="49.29362" lon="-0.0766">
        <ele>24</ele>
        <time>2018-04-18T09:00:42Z</time>
      </trkpt>
      <trkpt lat="49.29361" lon="-0.07647">
        <ele>24</ele>
        <time>2018-04-18T09:00:48Z</time>
      </trkpt>
      <trkpt lat="49.29362" lon="-0.07636">
        <ele>23</ele>
        <time>2018-04-18T09:00:54Z</time>
      </trkpt>
      <trkpt lat="49.29363" lon="-0.07624">
        <ele>23</ele>
        <time>2018-04-18T09:01:00Z</time>
      </trkpt>
      <trkpt lat="49.29362" lon="-0.07611">
        <ele>23</ele>
        <time>2018-04-18T09:01:07Z</time>
      </trkpt>
      <trkpt lat="49.29363" lon="-0.076">
        <ele>23</ele>
        <time>2018-04-18T09:01:13Z</time>
      </trkpt>
      <trkpt lat="49.29365" lon="-0.07587">
        <ele>23</ele>
        <time>2018-04-18T09:01:20Z</time>
      </trkpt>
      <trkpt lat="49.29366" lon="-0.07575">
        <ele>22</ele>
        <time>2018-04-18T09:01:26Z</time>
      </trkpt>
      <trkpt lat="49.29367" lon="-0.07563">
        <ele>22</ele>
        <time>2018-04-18T09:01:31Z</time>
      </trkpt>
      <trkpt lat="49.29366" lon="-0.07552">
        <ele>22</ele>
        <time>2018-04-18T09:01:36Z</time>
      </trkpt>
      <trkpt lat="49.29365" lon="-0.07541">
        <ele>22</ele>
        <time>2018-04-18T09:01:42Z</time>
      </trkpt>
      <trkpt lat="49.29365" lon="-0.07528">
        <ele>21</ele>
        <time>2018-04-18T09:01:49Z</time>
      </trkpt>
      <trkpt lat="49.29367" lon="-0.07516">
        <ele>21</ele>
        <time>2018-04-18T09:01:54Z</time>
      </trkpt>
      <trkpt lat="49.29367" lon="-0.07505">
        <ele>21</ele>
        <time>2018-04-18T09:02:00Z</time>
      </trkpt>
      <trkpt lat="49.29366" lon="-0.07492">
        <ele>20</ele>
        <time>2018-04-18T09:02:07Z</time>
      </trkpt>
      <trkpt lat="49.29365" lon="-0.07481">
        <ele>20</ele>
        <time>2018-04-18T09:02:14Z</time>
      </trkpt>
      <trkpt lat="49.2936" lon="-0.07471">
        <ele>20</ele>
        <time>2018-04-18T09:02:20Z</time>
      </trkpt>
      <trkpt lat="49.29354" lon="-0.07464">
        <ele>20</ele>
        <time>2018-04-18T09:02:26Z</time>
      </trkpt>
      <trkpt lat="49.29351" lon="-0.07454">
        <ele>19</ele>
        <time>2018-04-18T09:02:32Z</time>
      </trkpt>
      <trkpt lat="49.29346" lon="-0.07449">
        <ele>19</ele>
        <time>2018-04-18T09:02:39Z</time>
      </trkpt>
      <trkpt lat="49.2934" lon="-0.0744">
        <ele>19</ele>
        <time>2018-04-18T09:02:45Z</time>
      </trkpt>
      <trkpt lat="49.29335" lon="-0.07432">
        <ele>19</ele>
        <time>2018-04-18T09:02:51Z</time>
      </trkpt>
      <trkpt lat="49.29328" lon="-0.07425">
        <ele>19</ele>
        <time>2018-04-18T09:02:56Z</time>
      </trkpt>
      <trkpt lat="49.29322" lon="-0.07417">
        <ele>19</ele>
        <time>2018-04-18T09:03:03Z</time>
      </trkpt>
      <trkpt lat="49.29322" lon="-0.07405">
        <ele>19</ele>
        <time>2018-04-18T09:03:10Z</time>
      </trkpt>
      <trkpt lat="49.2932" lon="-0.07394">
        <ele>19</ele>
        <time>2018-04-18T09:03:16Z</time>
      </trkpt>
      <trkpt lat="49.29321" lon="-0.07381">
        <ele>19</ele>
        <time>2018-04-18T09:03:22Z</time>
      </trkpt>
      <trkpt lat="49.29316" lon="-0.07372">
        <ele>19</ele>
        <time>2018-04-18T09:03:28Z</time>
      </trkpt>
      <trkpt lat="49.29311" lon="-0.07364">
        <ele>19</ele>
        <time>2018-04-18T09:03:35Z</time>
      </trkpt>
      <trkpt lat="49.29308" lon="-0.07359">
        <ele>19</ele>
        <time>2018-04-18T09:03:42Z</time>
      </trkpt>
      <trkpt lat="49.29301" lon="-0.07358">
        <ele>19</ele>
        <time>2018-04-18T09:03:49Z</time>
      </trkpt>
      <trkpt lat="49.29293" lon="-0.07355">
        <ele>19</ele>
        <time>2018-04-18T09:03:56Z</time>
      </trkpt>
      <trkpt lat="49.29284" lon="-0.07356">
        <ele>19</ele>
        <time>2018-04-18T09:04:03Z</time>
      </trkpt>
      <trkpt lat="49.29277" lon="-0.07356">
        <ele>19</ele>
        <time>2018-04-18T09:04:09Z</time>
      </trkpt>
      <trkpt lat="49.2927" lon="-0.07356">
        <ele>19</ele>
        <time>2018-04-18T09:04:16Z</time>
      </trkpt>
      <trkpt lat="49.29263" lon="-0.07357">
        <ele>20</ele>
        <time>2018-04-18T09:04:22Z</time>
      </trkpt>
      <trkpt lat="49.29256" lon="-0.07359">
        <ele>20</ele>
        <time>2018-04-18T09:04:28Z</time>
      </trkpt>
      <trkpt lat="49.29251" lon="-0.07359">
        <ele>20</ele>
        <time>2018-04-18T09:04:35Z</time>
      </trkpt>
      <trkpt lat="49.29252" lon="-0.07358">
        <ele>20</ele>
        <time>2018-04-18T09:04:40Z</time>
      </trkpt>
      <trkpt lat="49.29245" lon="-0.07355">
        <ele>20</ele>
        <time>2018-04-18T09:04:54Z</time>
      </trkpt>
      <trkpt lat="49.2924" lon="-0.07354">
        <ele>20</ele>
        <time>2018-04-18T09:05:01Z</time>
      </trkpt>
      <trkpt lat="49.29238" lon="-0.07356">
        <ele>20</ele>
        <time>2018-04-18T09:05:08Z</time>
      </trkpt>
      <trkpt lat="49.29235" lon="-0.07365">
        <ele>20</ele>
        <time>2018-04-18T09:05:15Z</time>
      </trkpt>
      <trkpt lat="49.29228" lon="-0.0737">
        <ele>20</ele>
        <time>2018-04-18T09:05:21Z</time>
      </trkpt>
      <trkpt lat="49.29227" lon="-0.07377">
        <ele>20</ele>
        <time>2018-04-18T09:05:28Z</time>
      </trkpt>
      <trkpt lat="49.29223" lon="-0.07387">
        <ele>20</ele>
        <time>2018-04-18T09:05:35Z</time>
      </trkpt>
      <trkpt lat="49.29221" lon="-0.07398">
        <ele>20</ele>
        <time>2018-04-18T09:05:42Z</time>
      </trkpt>
      <trkpt lat="49.29219" lon="-0.07409">
        <ele>20</ele>
        <time>2018-04-18T09:05:49Z</time>
      </trkpt>
      <trkpt lat="49.29215" lon="-0.07419">
        <ele>21</ele>
        <time>2018-04-18T09:05:55Z</time>
      </trkpt>
      <trkpt lat="49.29212" lon="-0.0743">
        <ele>21</ele>
        <time>2018-04-18T09:06:01Z</time>
      </trkpt>
      <trkpt lat="49.29209" lon="-0.0744">
        <ele>21</ele>
        <time>2018-04-18T09:06:07Z</time>
      </trkpt>
      <trkpt lat="49.29206" lon="-0.0745">
        <ele>21</ele>
        <time>2018-04-18T09:06:13Z</time>
      </trkpt>
      <trkpt lat="49.29206" lon="-0.07462">
        <ele>22</ele>
        <time>2018-04-18T09:06:20Z</time>
      </trkpt>
      <trkpt lat="49.292" lon="-0.07469">
        <ele>22</ele>
        <time>2018-04-18T09:06:25Z</time>
      </trkpt>
      <trkpt lat="49.29193" lon="-0.07474">
        <ele>22</ele>
        <time>2018-04-18T09:06:31Z</time>
      </trkpt>
      <trkpt lat="49.29186" lon="-0.0748">
        <ele>22</ele>
        <time>2018-04-18T09:06:37Z</time>
      </trkpt>
      <trkpt lat="49.29185" lon="-0.07486">
        <ele>22</ele>
        <time>2018-04-18T09:06:44Z</time>
      </trkpt>
      <trkpt lat="49.2918" lon="-0.0749">
        <ele>23</ele>
        <time>2018-04-18T09:06:51Z</time>
      </trkpt>
      <trkpt lat="49.29176" lon="-0.07498">
        <ele>23</ele>
        <time>2018-04-18T09:06:58Z</time>
      </trkpt>
      <trkpt lat="49.29171" lon="-0.07506">
        <ele>24</ele>
        <time>2018-04-18T09:07:04Z</time>
      </trkpt>
      <trkpt lat="49.29167" lon="-0.07516">
        <ele>24</ele>
        <time>2018-04-18T09:07:11Z</time>
      </trkpt>
      <trkpt lat="49.29161" lon="-0.07526">
        <ele>25</ele>
        <time>2018-04-18T09:07:17Z</time>
      </trkpt>
      <trkpt lat="49.29155" lon="-0.07535">
        <ele>25</ele>
        <time>2018-04-18T09:07:24Z</time>
      </trkpt>
      <trkpt lat="49.29148" lon="-0.07541">
        <ele>25</ele>
        <time>2018-04-18T09:07:29Z</time>
      </trkpt>
      <trkpt lat="49.29143" lon="-0.07551">
        <ele>25</ele>
        <time>2018-04-18T09:07:36Z</time>
      </trkpt>
      <trkpt lat="49.2914" lon="-0.07556">
        <ele>25</ele>
        <time>2018-04-18T09:07:43Z</time>
      </trkpt>
      <trkpt lat="49.29135" lon="-0.07565">
        <ele>26</ele>
        <time>2018-04-18T09:07:48Z</time>
      </trkpt>
      <trkpt lat="49.29132" lon="-0.07576">
        <ele>26</ele>
        <time>2018-04-18T09:07:54Z</time>
      </trkpt>
      <trkpt lat="49.29128" lon="-0.07587">
        <ele>27</ele>
        <time>2018-04-18T09:08:00Z</time>
      </trkpt>
      <trkpt lat="49.29125" lon="-0.07599">
        <ele>27</ele>
        <time>2018-04-18T09:08:07Z</time>
      </trkpt>
      <trkpt lat="49.29124" lon="-0.07607">
        <ele>27</ele>
        <time>2018-04-18T09:08:14Z</time>
      </trkpt>
      <trkpt lat="49.29122" lon="-0.07619">
        <ele>27</ele>
        <time>2018-04-18T09:08:21Z</time>
      </trkpt>
      <trkpt lat="49.29118" lon="-0.07626">
        <ele>27</ele>
        <time>2018-04-18T09:08:28Z</time>
      </trkpt>
      <trkpt lat="49.29117" lon="-0.07632">
        <ele>27</ele>
        <time>2018-04-18T09:08:35Z</time>
      </trkpt>
      <trkpt lat="49.29113" lon="-0.07641">
        <ele>27</ele>
        <time>2018-04-18T09:08:42Z</time>
      </trkpt>
      <trkpt lat="49.2911" lon="-0.07652">
        <ele>27</ele>
        <time>2018-04-18T09:08:48Z</time>
      </trkpt>
      <trkpt lat="49.29107" lon="-0.07663">
        <ele>27</ele>
        <time>2018-04-18T09:08:55Z</time>
      </trkpt>
      <trkpt lat="49.29103" lon="-0.07674">
        <ele>27</ele>
        <time>2018-04-18T09:09:01Z</time>
      </trkpt>
      <trkpt lat="49.29101" lon="-0.07685">
        <ele>27</ele>
        <time>2018-04-18T09:09:08Z</time>
      </trkpt>
      <trkpt lat="49.29098" lon="-0.07696">
        <ele>27</ele>
        <time>2018-04-18T09:09:15Z</time>
      </trkpt>
      <trkpt lat="49.29094" lon="-0.07703">
        <ele>27</ele>
        <time>2018-04-18T09:09:22Z</time>
      </trkpt>
      <trkpt lat="49.29088" lon="-0.07712">
        <ele>27</ele>
        <time>2018-04-18T09:09:27Z</time>
      </trkpt>
      <trkpt lat="49.29085" lon="-0.07724">
        <ele>27</ele>
        <time>2018-04-18T09:09:33Z</time>
      </trkpt>
      <trkpt lat="49.29082" lon="-0.07736">
        <ele>29</ele>
        <time>2018-04-18T09:09:40Z</time>
      </trkpt>
      <trkpt lat="49.29081" lon="-0.07744">
        <ele>28</ele>
        <time>2018-04-18T09:09:47Z</time>
      </trkpt>
      <trkpt lat="49.2908" lon="-0.07752">
        <ele>29</ele>
        <time>2018-04-18T09:09:54Z</time>
      </trkpt>
      <trkpt lat="49.29079" lon="-0.07763">
        <ele>30</ele>
        <time>2018-04-18T09:10:00Z</time>
      </trkpt>
      <trkpt lat="49.2908" lon="-0.07773">
        <ele>30</ele>
        <time>2018-04-18T09:10:07Z</time>
      </trkpt>
      <trkpt lat="49.29078" lon="-0.07784">
        <ele>31</ele>
        <time>2018-04-18T09:10:14Z</time>
      </trkpt>
      <trkpt lat="49.29076" lon="-0.07792">
        <ele>31</ele>
        <time>2018-04-18T09:10:21Z</time>
      </trkpt>
      <trkpt lat="49.29076" lon="-0.07792">
        <ele>31</ele>
        <time>2018-04-18T09:10:26Z</time>
      </trkpt>
      <trkpt lat="49.29076" lon="-0.07796">
        <ele>31</ele>
        <time>2018-04-18T09:10:36Z</time>
      </trkpt>
      <trkpt lat="49.29077" lon="-0.07796">
        <ele>31</ele>
        <time>2018-04-18T09:10:41Z</time>
      </trkpt>
      <trkpt lat="49.29077" lon="-0.07797">
        <ele>31</ele>
        <time>2018-04-18T09:10:50Z</time>
      </trkpt>
      <trkpt lat="49.29077" lon="-0.07797">
        <ele>31</ele>
        <time>2018-04-18T09:10:51Z</time>
      </trkpt>
      <trkpt lat="49.29077" lon="-0.07789">
        <ele>31</ele>
        <time>2018-04-18T09:11:17Z</time>
      </trkpt>
      <trkpt lat="49.29071" lon="-0.07794">
        <ele>31</ele>
        <time>2018-04-18T09:11:24Z</time>
      </trkpt>
      <trkpt lat="49.29065" lon="-0.078">
        <ele>31</ele>
        <time>2018-04-18T09:11:31Z</time>
      </trkpt>
      <trkpt lat="49.2906" lon="-0.07806">
        <ele>32</ele>
        <time>2018-04-18T09:11:38Z</time>
      </trkpt>
      <trkpt lat="49.29056" lon="-0.07814">
        <ele>32</ele>
        <time>2018-04-18T09:11:45Z</time>
      </trkpt>
      <trkpt lat="49.29055" lon="-0.07821">
        <ele>32</ele>
        <time>2018-04-18T09:11:52Z</time>
      </trkpt>
      <trkpt lat="49.29051" lon="-0.07829">
        <ele>32</ele>
        <time>2018-04-18T09:11:59Z</time>
      </trkpt>
      <trkpt lat="49.29047" lon="-0.07837">
        <ele>34</ele>
        <time>2018-04-18T09:12:06Z</time>
      </trkpt>
      <trkpt lat="49.29044" lon="-0.0784">
        <ele>34</ele>
        <time>2018-04-18T09:12:13Z</time>
      </trkpt>
      <trkpt lat="49.29037" lon="-0.07846">
        <ele>35</ele>
        <time>2018-04-18T09:12:20Z</time>
      </trkpt>
      <trkpt lat="49.29033" lon="-0.07853">
        <ele>35</ele>
        <time>2018-04-18T09:12:27Z</time>
      </trkpt>
      <trkpt lat="49.29032" lon="-0.07859">
        <ele>35</ele>
        <time>2018-04-18T09:12:34Z</time>
      </trkpt>
      <trkpt lat="49.2903" lon="-0.07858">
        <ele>35</ele>
        <time>2018-04-18T09:12:41Z</time>
      </trkpt>
      <trkpt lat="49.2903" lon="-0.07858">
        <ele>35</ele>
        <time>2018-04-18T09:12:43Z</time>
      </trkpt>
      <trkpt lat="49.29025" lon="-0.07865">
        <ele>36</ele>
        <time>2018-04-18T09:12:56Z</time>
      </trkpt>
      <trkpt lat="49.29023" lon="-0.07877">
        <ele>36</ele>
        <time>2018-04-18T09:13:03Z</time>
      </trkpt>
      <trkpt lat="49.29019" lon="-0.07884">
        <ele>37</ele>
        <time>2018-04-18T09:13:10Z</time>
      </trkpt>
      <trkpt lat="49.29015" lon="-0.0789">
        <ele>37</ele>
        <time>2018-04-18T09:13:17Z</time>
      </trkpt>
      <trkpt lat="49.29014" lon="-0.07898">
        <ele>38</ele>
        <time>2018-04-18T09:13:24Z</time>
      </trkpt>
      <trkpt lat="49.29012" lon="-0.07906">
        <ele>39</ele>
        <time>2018-04-18T09:13:31Z</time>
      </trkpt>
      <trkpt lat="49.29013" lon="-0.07914">
        <ele>39</ele>
        <time>2018-04-18T09:13:38Z</time>
      </trkpt>
      <trkpt lat="49.29013" lon="-0.07914">
        <ele>39</ele>
        <time>2018-04-18T09:13:44Z</time>
      </trkpt>
      <trkpt lat="49.29011" lon="-0.07924">
        <ele>40</ele>
        <time>2018-04-18T09:13:52Z</time>
      </trkpt>
      <trkpt lat="49.29009" lon="-0.07929">
        <ele>40</ele>
        <time>2018-04-18T09:13:59Z</time>
      </trkpt>
      <trkpt lat="49.29003" lon="-0.07935">
        <ele>40</ele>
        <time>2018-04-18T09:14:06Z</time>
      </trkpt>
      <trkpt lat="49.28999" lon="-0.07941">
        <ele>45</ele>
        <time>2018-04-18T09:14:13Z</time>
      </trkpt>
      <trkpt lat="49.28996" lon="-0.07943">
        <ele>45</ele>
        <time>2018-04-18T09:14:20Z</time>
      </trkpt>
      <trkpt lat="49.28996" lon="-0.07944">
        <ele>45</ele>
        <time>2018-04-18T09:14:21Z</time>
      </trkpt>
      <trkpt lat="49.28992" lon="-0.07944">
        <ele>45</ele>
        <time>2018-04-18T09:14:29Z</time>
      </trkpt>
      <trkpt lat="49.28991" lon="-0.07945">
        <ele>45</ele>
        <time>2018-04-18T09:14:36Z</time>
      </trkpt>
      <trkpt lat="49.28991" lon="-0.07945">
        <ele>45</ele>
        <time>2018-04-18T09:14:37Z</time>
      </trkpt>
      <trkpt lat="49.28988" lon="-0.07945">
        <ele>45</ele>
        <time>2018-04-18T09:14:46Z</time>
      </trkpt>
      <trkpt lat="49.28988" lon="-0.07945">
        <ele>45</ele>
        <time>2018-04-18T09:14:47Z</time>
      </trkpt>
      <trkpt lat="49.28989" lon="-0.07954">
        <ele>45</ele>
        <time>2018-04-18T09:15:40Z</time>
      </trkpt>
      <trkpt lat="49.28988" lon="-0.07961">
        <ele>45</ele>
        <time>2018-04-18T09:15:47Z</time>
      </trkpt>
      <trkpt lat="49.28984" lon="-0.07966">
        <ele>45</ele>
        <time>2018-04-18T09:15:54Z</time>
      </trkpt>
      <trkpt lat="49.28979" lon="-0.07974">
        <ele>46</ele>
        <time>2018-04-18T09:16:00Z</time>
      </trkpt>
      <trkpt lat="49.28973" lon="-0.07982">
        <ele>46</ele>
        <time>2018-04-18T09:16:06Z</time>
      </trkpt>
      <trkpt lat="49.28967" lon="-0.07988">
        <ele>46</ele>
        <time>2018-04-18T09:16:12Z</time>
      </trkpt>
      <trkpt lat="49.28963" lon="-0.07993">
        <ele>47</ele>
        <time>2018-04-18T09:16:19Z</time>
      </trkpt>
      <trkpt lat="49.28961" lon="-0.07994">
        <ele>47</ele>
        <time>2018-04-18T09:16:25Z</time>
      </trkpt>
      <trkpt lat="49.28955" lon="-0.07997">
        <ele>47</ele>
        <time>2018-04-18T09:16:32Z</time>
      </trkpt>
      <trkpt lat="49.2895" lon="-0.07996">
        <ele>48</ele>
        <time>2018-04-18T09:16:39Z</time>
      </trkpt>
      <trkpt lat="49.28944" lon="-0.07997">
        <ele>48</ele>
        <time>2018-04-18T09:16:46Z</time>
      </trkpt>
      <trkpt lat="49.28939" lon="-0.07996">
        <ele>49</ele>
        <time>2018-04-18T09:16:53Z</time>
      </trkpt>
      <trkpt lat="49.28932" lon="-0.07998">
        <ele>50</ele>
        <time>2018-04-18T09:17:00Z</time>
      </trkpt>
      <trkpt lat="49.28927" lon="-0.07997">
        <ele>51</ele>
        <time>2018-04-18T09:17:07Z</time>
      </trkpt>
      <trkpt lat="49.28923" lon="-0.07997">
        <ele>51</ele>
        <time>2018-04-18T09:17:14Z</time>
      </trkpt>
      <trkpt lat="49.28919" lon="-0.07999">
        <ele>52</ele>
        <time>2018-04-18T09:17:21Z</time>
      </trkpt>
      <trkpt lat="49.28915" lon="-0.07999">
        <ele>53</ele>
        <time>2018-04-18T09:17:28Z</time>
      </trkpt>
      <trkpt lat="49.28908" lon="-0.08001">
        <ele>55</ele>
        <time>2018-04-18T09:17:35Z</time>
      </trkpt>
      <trkpt lat="49.28902" lon="-0.08006">
        <ele>56</ele>
        <time>2018-04-18T09:17:42Z</time>
      </trkpt>
      <trkpt lat="49.28896" lon="-0.08009">
        <ele>57</ele>
        <time>2018-04-18T09:17:49Z</time>
      </trkpt>
      <trkpt lat="49.28893" lon="-0.08014">
        <ele>57</ele>
        <time>2018-04-18T09:17:56Z</time>
      </trkpt>
      <trkpt lat="49.28889" lon="-0.08016">
        <ele>58</ele>
        <time>2018-04-18T09:18:03Z</time>
      </trkpt>
      <trkpt lat="49.28886" lon="-0.08017">
        <ele>58</ele>
        <time>2018-04-18T09:18:10Z</time>
      </trkpt>
      <trkpt lat="49.28881" lon="-0.08023">
        <ele>58</ele>
        <time>2018-04-18T09:18:17Z</time>
      </trkpt>
      <trkpt lat="49.28877" lon="-0.08031">
        <ele>59</ele>
        <time>2018-04-18T09:18:24Z</time>
      </trkpt>
      <trkpt lat="49.28872" lon="-0.08041">
        <ele>59</ele>
        <time>2018-04-18T09:18:31Z</time>
      </trkpt>
      <trkpt lat="49.28868" lon="-0.08046">
        <ele>60</ele>
        <time>2018-04-18T09:18:38Z</time>
      </trkpt>
      <trkpt lat="49.28868" lon="-0.08051">
        <ele>60</ele>
        <time>2018-04-18T09:18:45Z</time>
      </trkpt>
      <trkpt lat="49.28868" lon="-0.08053">
        <ele>60</ele>
        <time>2018-04-18T09:18:51Z</time>
      </trkpt>
      <trkpt lat="49.28868" lon="-0.08059">
        <ele>60</ele>
        <time>2018-04-18T09:18:59Z</time>
      </trkpt>
      <trkpt lat="49.28868" lon="-0.08063">
        <ele>61</ele>
        <time>2018-04-18T09:19:06Z</time>
      </trkpt>
      <trkpt lat="49.28864" lon="-0.08064">
        <ele>61</ele>
        <time>2018-04-18T09:19:13Z</time>
      </trkpt>
      <trkpt lat="49.2886" lon="-0.08072">
        <ele>62</ele>
        <time>2018-04-18T09:19:21Z</time>
      </trkpt>
      <trkpt lat="49.28858" lon="-0.08077">
        <ele>62</ele>
        <time>2018-04-18T09:19:28Z</time>
      </trkpt>
      <trkpt lat="49.28857" lon="-0.08078">
        <ele>62</ele>
        <time>2018-04-18T09:19:33Z</time>
      </trkpt>
      <trkpt lat="49.2886" lon="-0.08078">
        <ele>62</ele>
        <time>2018-04-18T09:19:43Z</time>
      </trkpt>
      <trkpt lat="49.28859" lon="-0.08083">
        <ele>62</ele>
        <time>2018-04-18T09:19:50Z</time>
      </trkpt>
      <trkpt lat="49.28855" lon="-0.08088">
        <ele>66</ele>
        <time>2018-04-18T09:19:57Z</time>
      </trkpt>
      <trkpt lat="49.28852" lon="-0.08094">
        <ele>67</ele>
        <time>2018-04-18T09:20:04Z</time>
      </trkpt>
      <trkpt lat="49.28851" lon="-0.08101">
        <ele>67</ele>
        <time>2018-04-18T09:20:11Z</time>
      </trkpt>
      <trkpt lat="49.28851" lon="-0.08106">
        <ele>67</ele>
        <time>2018-04-18T09:20:18Z</time>
      </trkpt>
      <trkpt lat="49.28851" lon="-0.08112">
        <ele>67</ele>
        <time>2018-04-18T09:20:25Z</time>
      </trkpt>
      <trkpt lat="49.28847" lon="-0.08116">
        <ele>67</ele>
        <time>2018-04-18T09:20:32Z</time>
      </trkpt>
      <trkpt lat="49.28847" lon="-0.08116">
        <ele>67</ele>
        <time>2018-04-18T09:20:37Z</time>
      </trkpt>
      <trkpt lat="49.28846" lon="-0.08118">
        <ele>67</ele>
        <time>2018-04-18T09:20:45Z</time>
      </trkpt>
      <trkpt lat="49.28846" lon="-0.08119">
        <ele>67</ele>
        <time>2018-04-18T09:20:47Z</time>
      </trkpt>
      <trkpt lat="49.28844" lon="-0.08123">
        <ele>68</ele>
        <time>2018-04-18T09:20:57Z</time>
      </trkpt>
      <trkpt lat="49.28842" lon="-0.08126">
        <ele>68</ele>
        <time>2018-04-18T09:21:04Z</time>
      </trkpt>
      <trkpt lat="49.28839" lon="-0.08131">
        <ele>68</ele>
        <time>2018-04-18T09:21:11Z</time>
      </trkpt>
      <trkpt lat="49.28837" lon="-0.08137">
        <ele>69</ele>
        <time>2018-04-18T09:21:18Z</time>
      </trkpt>
      <trkpt lat="49.28834" lon="-0.08139">
        <ele>69</ele>
        <time>2018-04-18T09:21:25Z</time>
      </trkpt>
      <trkpt lat="49.28832" lon="-0.08142">
        <ele>75</ele>
        <time>2018-04-18T09:21:32Z</time>
      </trkpt>
      <trkpt lat="49.28829" lon="-0.08144">
        <ele>75</ele>
        <time>2018-04-18T09:21:39Z</time>
      </trkpt>
      <trkpt lat="49.28831" lon="-0.08144">
        <ele>75</ele>
        <time>2018-04-18T09:21:43Z</time>
      </trkpt>
      <trkpt lat="49.28834" lon="-0.0815">
        <ele>71</ele>
        <time>2018-04-18T09:21:56Z</time>
      </trkpt>
      <trkpt lat="49.28832" lon="-0.08151">
        <ele>75</ele>
        <time>2018-04-18T09:22:03Z</time>
      </trkpt>
      <trkpt lat="49.28826" lon="-0.08161">
        <ele>75</ele>
        <time>2018-04-18T09:22:10Z</time>
      </trkpt>
      <trkpt lat="49.28822" lon="-0.08167">
        <ele>79</ele>
        <time>2018-04-18T09:22:17Z</time>
      </trkpt>
      <trkpt lat="49.2882" lon="-0.08173">
        <ele>79</ele>
        <time>2018-04-18T09:22:24Z</time>
      </trkpt>
      <trkpt lat="49.28817" lon="-0.08175">
        <ele>80</ele>
        <time>2018-04-18T09:22:31Z</time>
      </trkpt>
      <trkpt lat="49.28817" lon="-0.0818">
        <ele>80</ele>
        <time>2018-04-18T09:22:38Z</time>
      </trkpt>
      <trkpt lat="49.28818" lon="-0.08182">
        <ele>81</ele>
        <time>2018-04-18T09:22:45Z</time>
      </trkpt>
      <trkpt lat="49.28815" lon="-0.0818">
        <ele>81</ele>
        <time>2018-04-18T09:22:52Z</time>
      </trkpt>
      <trkpt lat="49.28815" lon="-0.08179">
        <ele>81</ele>
        <time>2018-04-18T09:22:58Z</time>
      </trkpt>
      <trkpt lat="49.28817" lon="-0.08183">
        <ele>81</ele>
        <time>2018-04-18T09:23:09Z</time>
      </trkpt>
      <trkpt lat="49.28817" lon="-0.08183">
        <ele>81</ele>
        <time>2018-04-18T09:23:13Z</time>
      </trkpt>
      <trkpt lat="49.28815" lon="-0.08183">
        <ele>81</ele>
        <time>2018-04-18T09:23:26Z</time>
      </trkpt>
      <trkpt lat="49.28815" lon="-0.08183">
        <ele>81</ele>
        <time>2018-04-18T09:23:27Z</time>
      </trkpt>
      <trkpt lat="49.28813" lon="-0.08182">
        <ele>81</ele>
        <time>2018-04-18T09:24:01Z</time>
      </trkpt>
      <trkpt lat="49.28813" lon="-0.08182">
        <ele>81</ele>
        <time>2018-04-18T09:24:06Z</time>
      </trkpt>
      <trkpt lat="49.28811" lon="-0.08184">
        <ele>82</ele>
        <time>2018-04-18T09:24:13Z</time>
      </trkpt>
      <trkpt lat="49.28809" lon="-0.08191">
        <ele>82</ele>
        <time>2018-04-18T09:24:20Z</time>
      </trkpt>
      <trkpt lat="49.28806" lon="-0.08195">
        <ele>83</ele>
        <time>2018-04-18T09:24:27Z</time>
      </trkpt>
      <trkpt lat="49.28803" lon="-0.08199">
        <ele>83</ele>
        <time>2018-04-18T09:24:34Z</time>
      </trkpt>
      <trkpt lat="49.288" lon="-0.08206">
        <ele>84</ele>
        <time>2018-04-18T09:24:41Z</time>
      </trkpt>
      <trkpt lat="49.28798" lon="-0.08212">
        <ele>84</ele>
        <time>2018-04-18T09:24:48Z</time>
      </trkpt>
      <trkpt lat="49.28797" lon="-0.08218">
        <ele>85</ele>
        <time>2018-04-18T09:24:55Z</time>
      </trkpt>
      <trkpt lat="49.28794" lon="-0.08225">
        <ele>85</ele>
        <time>2018-04-18T09:25:02Z</time>
      </trkpt>
      <trkpt lat="49.28791" lon="-0.08233">
        <ele>86</ele>
        <time>2018-04-18T09:25:09Z</time>
      </trkpt>
      <trkpt lat="49.28789" lon="-0.08238">
        <ele>86</ele>
        <time>2018-04-18T09:25:16Z</time>
      </trkpt>
      <trkpt lat="49.28786" lon="-0.08242">
        <ele>87</ele>
        <time>2018-04-18T09:25:23Z</time>
      </trkpt>
      <trkpt lat="49.28782" lon="-0.08248">
        <ele>87</ele>
        <time>2018-04-18T09:25:30Z</time>
      </trkpt>
      <trkpt lat="49.28778" lon="-0.08254">
        <ele>93</ele>
        <time>2018-04-18T09:25:37Z</time>
      </trkpt>
      <trkpt lat="49.28777" lon="-0.08262">
        <ele>93</ele>
        <time>2018-04-18T09:25:44Z</time>
      </trkpt>
      <trkpt lat="49.28774" lon="-0.08267">
        <ele>93</ele>
        <time>2018-04-18T09:25:51Z</time>
      </trkpt>
      <trkpt lat="49.28771" lon="-0.08273">
        <ele>94</ele>
        <time>2018-04-18T09:25:58Z</time>
      </trkpt>
      <trkpt lat="49.2877" lon="-0.08281">
        <ele>94</ele>
        <time>2018-04-18T09:26:05Z</time>
      </trkpt>
      <trkpt lat="49.28767" lon="-0.08286">
        <ele>94</ele>
        <time>2018-04-18T09:26:12Z</time>
      </trkpt>
      <trkpt lat="49.28766" lon="-0.08289">
        <ele>95</ele>
        <time>2018-04-18T09:26:19Z</time>
      </trkpt>
      <trkpt lat="49.28764" lon="-0.08296">
        <ele>95</ele>
        <time>2018-04-18T09:26:26Z</time>
      </trkpt>
      <trkpt lat="49.28764" lon="-0.083">
        <ele>95</ele>
        <time>2018-04-18T09:26:33Z</time>
      </trkpt>
      <trkpt lat="49.28763" lon="-0.08301">
        <ele>95</ele>
        <time>2018-04-18T09:26:37Z</time>
      </trkpt>
      <trkpt lat="49.28767" lon="-0.08302">
        <ele>95</ele>
        <time>2018-04-18T09:26:50Z</time>
      </trkpt>
      <trkpt lat="49.28766" lon="-0.08304">
        <ele>95</ele>
        <time>2018-04-18T09:26:57Z</time>
      </trkpt>
      <trkpt lat="49.28766" lon="-0.08304">
        <ele>95</ele>
        <time>2018-04-18T09:26:58Z</time>
      </trkpt>
      <trkpt lat="49.28766" lon="-0.08302">
        <ele>95</ele>
        <time>2018-04-18T09:27:17Z</time>
      </trkpt>
      <trkpt lat="49.28766" lon="-0.08302">
        <ele>95</ele>
        <time>2018-04-18T09:27:18Z</time>
      </trkpt>
      <trkpt lat="49.28766" lon="-0.08301">
        <ele>95</ele>
        <time>2018-04-18T09:27:27Z</time>
      </trkpt>
      <trkpt lat="49.28766" lon="-0.08301">
        <ele>95</ele>
        <time>2018-04-18T09:27:28Z</time>
      </trkpt>
      <trkpt lat="49.28765" lon="-0.08305">
        <ele>96</ele>
        <time>2018-04-18T09:27:38Z</time>
      </trkpt>
      <trkpt lat="49.28767" lon="-0.08304">
        <ele>95</ele>
        <time>2018-04-18T09:27:45Z</time>
      </trkpt>
      <trkpt lat="49.28767" lon="-0.08304">
        <ele>95</ele>
        <time>2018-04-18T09:27:46Z</time>
      </trkpt>
      <trkpt lat="49.28767" lon="-0.08304">
        <ele>95</ele>
        <time>2018-04-18T09:28:14Z</time>
      </trkpt>
      <trkpt lat="49.28768" lon="-0.08304">
        <ele>95</ele>
        <time>2018-04-18T09:28:15Z</time>
      </trkpt>
      <trkpt lat="49.28772" lon="-0.08305">
        <ele>95</ele>
        <time>2018-04-18T09:28:30Z</time>
      </trkpt>
      <trkpt lat="49.28779" lon="-0.08304">
        <ele>95</ele>
        <time>2018-04-18T09:28:37Z</time>
      </trkpt>
      <trkpt lat="49.28785" lon="-0.08302">
        <ele>95</ele>
        <time>2018-04-18T09:28:44Z</time>
      </trkpt>
      <trkpt lat="49.28793" lon="-0.08302">
        <ele>95</ele>
        <time>2018-04-18T09:28:51Z</time>
      </trkpt>
      <trkpt lat="49.28801" lon="-0.08302">
        <ele>94</ele>
        <time>2018-04-18T09:28:57Z</time>
      </trkpt>
      <trkpt lat="49.28809" lon="-0.08302">
        <ele>94</ele>
        <time>2018-04-18T09:29:03Z</time>
      </trkpt>
      <trkpt lat="49.28817" lon="-0.08301">
        <ele>94</ele>
        <time>2018-04-18T09:29:10Z</time>
      </trkpt>
      <trkpt lat="49.28825" lon="-0.083">
        <ele>94</ele>
        <time>2018-04-18T09:29:17Z</time>
      </trkpt>
      <trkpt lat="49.28832" lon="-0.08303">
        <ele>94</ele>
        <time>2018-04-18T09:29:24Z</time>
      </trkpt>
      <trkpt lat="49.28841" lon="-0.08302">
        <ele>90</ele>
        <time>2018-04-18T09:29:31Z</time>
      </trkpt>
      <trkpt lat="49.28848" lon="-0.083">
        <ele>89</ele>
        <time>2018-04-18T09:29:38Z</time>
      </trkpt>
      <trkpt lat="49.28855" lon="-0.08301">
        <ele>89</ele>
        <time>2018-04-18T09:29:44Z</time>
      </trkpt>
      <trkpt lat="49.28862" lon="-0.08301">
        <ele>88</ele>
        <time>2018-04-18T09:29:51Z</time>
      </trkpt>
      <trkpt lat="49.2887" lon="-0.08299">
        <ele>88</ele>
        <time>2018-04-18T09:29:58Z</time>
      </trkpt>
      <trkpt lat="49.28878" lon="-0.083">
        <ele>87</ele>
        <time>2018-04-18T09:30:04Z</time>
      </trkpt>
      <trkpt lat="49.28886" lon="-0.083">
        <ele>87</ele>
        <time>2018-04-18T09:30:10Z</time>
      </trkpt>
      <trkpt lat="49.28893" lon="-0.083">
        <ele>87</ele>
        <time>2018-04-18T09:30:16Z</time>
      </trkpt>
      <trkpt lat="49.28897" lon="-0.08307">
        <ele>87</ele>
        <time>2018-04-18T09:30:23Z</time>
      </trkpt>
      <trkpt lat="49.28903" lon="-0.08312">
        <ele>88</ele>
        <time>2018-04-18T09:30:30Z</time>
      </trkpt>
      <trkpt lat="49.28907" lon="-0.08314">
        <ele>88</ele>
        <time>2018-04-18T09:30:37Z</time>
      </trkpt>
      <trkpt lat="49.28915" lon="-0.08314">
        <ele>88</ele>
        <time>2018-04-18T09:30:43Z</time>
      </trkpt>
      <trkpt lat="49.28922" lon="-0.08319">
        <ele>84</ele>
        <time>2018-04-18T09:30:48Z</time>
      </trkpt>
      <trkpt lat="49.28929" lon="-0.08324">
        <ele>84</ele>
        <time>2018-04-18T09:30:53Z</time>
      </trkpt>
      <trkpt lat="49.28936" lon="-0.08329">
        <ele>83</ele>
        <time>2018-04-18T09:30:58Z</time>
      </trkpt>
      <trkpt lat="49.28944" lon="-0.08335">
        <ele>89</ele>
        <time>2018-04-18T09:31:03Z</time>
      </trkpt>
      <trkpt lat="49.28951" lon="-0.08337">
        <ele>88</ele>
        <time>2018-04-18T09:31:10Z</time>
      </trkpt>
      <trkpt lat="49.2896" lon="-0.08341">
        <ele>87</ele>
        <time>2018-04-18T09:31:17Z</time>
      </trkpt>
      <trkpt lat="49.28965" lon="-0.08346">
        <ele>87</ele>
        <time>2018-04-18T09:31:24Z</time>
      </trkpt>
      <trkpt lat="49.28973" lon="-0.08351">
        <ele>87</ele>
        <time>2018-04-18T09:31:31Z</time>
      </trkpt>
      <trkpt lat="49.2898" lon="-0.08355">
        <ele>86</ele>
        <time>2018-04-18T09:31:35Z</time>
      </trkpt>
      <trkpt lat="49.28987" lon="-0.08359">
        <ele>86</ele>
        <time>2018-04-18T09:31:40Z</time>
      </trkpt>
      <trkpt lat="49.28993" lon="-0.08367">
        <ele>87</ele>
        <time>2018-04-18T09:31:46Z</time>
      </trkpt>
      <trkpt lat="49.29001" lon="-0.08372">
        <ele>81</ele>
        <time>2018-04-18T09:31:52Z</time>
      </trkpt>
      <trkpt lat="49.29007" lon="-0.08375">
        <ele>81</ele>
        <time>2018-04-18T09:31:59Z</time>
      </trkpt>
      <trkpt lat="49.29015" lon="-0.08378">
        <ele>81</ele>
        <time>2018-04-18T09:32:05Z</time>
      </trkpt>
      <trkpt lat="49.29021" lon="-0.08382">
        <ele>82</ele>
        <time>2018-04-18T09:32:12Z</time>
      </trkpt>
      <trkpt lat="49.29024" lon="-0.08386">
        <ele>82</ele>
        <time>2018-04-18T09:32:19Z</time>
      </trkpt>
      <trkpt lat="49.29029" lon="-0.08389">
        <ele>82</ele>
        <time>2018-04-18T09:32:26Z</time>
      </trkpt>
      <trkpt lat="49.29036" lon="-0.08392">
        <ele>81</ele>
        <time>2018-04-18T09:32:31Z</time>
      </trkpt>
      <trkpt lat="49.29044" lon="-0.08397">
        <ele>81</ele>
        <time>2018-04-18T09:32:38Z</time>
      </trkpt>
      <trkpt lat="49.29053" lon="-0.08397">
        <ele>81</ele>
        <time>2018-04-18T09:32:43Z</time>
      </trkpt>
      <trkpt lat="49.29061" lon="-0.08401">
        <ele>81</ele>
        <time>2018-04-18T09:32:49Z</time>
      </trkpt>
      <trkpt lat="49.29068" lon="-0.08404">
        <ele>81</ele>
        <time>2018-04-18T09:32:55Z</time>
      </trkpt>
      <trkpt lat="49.29076" lon="-0.08408">
        <ele>81</ele>
        <time>2018-04-18T09:33:00Z</time>
      </trkpt>
      <trkpt lat="49.29083" lon="-0.08411">
        <ele>81</ele>
        <time>2018-04-18T09:33:05Z</time>
      </trkpt>
      <trkpt lat="49.2909" lon="-0.08413">
        <ele>78</ele>
        <time>2018-04-18T09:33:09Z</time>
      </trkpt>
      <trkpt lat="49.29097" lon="-0.08418">
        <ele>82</ele>
        <time>2018-04-18T09:33:15Z</time>
      </trkpt>
      <trkpt lat="49.29102" lon="-0.0842">
        <ele>82</ele>
        <time>2018-04-18T09:33:22Z</time>
      </trkpt>
      <trkpt lat="49.2911" lon="-0.08424">
        <ele>81</ele>
        <time>2018-04-18T09:33:27Z</time>
      </trkpt>
      <trkpt lat="49.29118" lon="-0.08427">
        <ele>81</ele>
        <time>2018-04-18T09:33:32Z</time>
      </trkpt>
      <trkpt lat="49.29124" lon="-0.08432">
        <ele>80</ele>
        <time>2018-04-18T09:33:39Z</time>
      </trkpt>
      <trkpt lat="49.29131" lon="-0.08439">
        <ele>80</ele>
        <time>2018-04-18T09:33:45Z</time>
      </trkpt>
      <trkpt lat="49.29137" lon="-0.08444">
        <ele>80</ele>
        <time>2018-04-18T09:33:51Z</time>
      </trkpt>
      <trkpt lat="49.29145" lon="-0.08448">
        <ele>80</ele>
        <time>2018-04-18T09:33:57Z</time>
      </trkpt>
      <trkpt lat="49.29152" lon="-0.08453">
        <ele>80</ele>
        <time>2018-04-18T09:34:03Z</time>
      </trkpt>
      <trkpt lat="49.29158" lon="-0.08457">
        <ele>80</ele>
        <time>2018-04-18T09:34:10Z</time>
      </trkpt>
      <trkpt lat="49.29164" lon="-0.08463">
        <ele>81</ele>
        <time>2018-04-18T09:34:16Z</time>
      </trkpt>
      <trkpt lat="49.29172" lon="-0.08467">
        <ele>75</ele>
        <time>2018-04-18T09:34:23Z</time>
      </trkpt>
      <trkpt lat="49.2918" lon="-0.08471">
        <ele>75</ele>
        <time>2018-04-18T09:34:30Z</time>
      </trkpt>
      <trkpt lat="49.29187" lon="-0.08469">
        <ele>74</ele>
        <time>2018-04-18T09:34:36Z</time>
      </trkpt>
      <trkpt lat="49.29195" lon="-0.08467">
        <ele>73</ele>
        <time>2018-04-18T09:34:40Z</time>
      </trkpt>
      <trkpt lat="49.29202" lon="-0.08469">
        <ele>73</ele>
        <time>2018-04-18T09:34:45Z</time>
      </trkpt>
      <trkpt lat="49.2921" lon="-0.08469">
        <ele>73</ele>
        <time>2018-04-18T09:34:50Z</time>
      </trkpt>
      <trkpt lat="49.29217" lon="-0.08466">
        <ele>72</ele>
        <time>2018-04-18T09:34:55Z</time>
      </trkpt>
      <trkpt lat="49.29223" lon="-0.08466">
        <ele>72</ele>
        <time>2018-04-18T09:35:02Z</time>
      </trkpt>
      <trkpt lat="49.29225" lon="-0.08466">
        <ele>72</ele>
        <time>2018-04-18T09:35:09Z</time>
      </trkpt>
      <trkpt lat="49.29231" lon="-0.08467">
        <ele>72</ele>
        <time>2018-04-18T09:35:16Z</time>
      </trkpt>
      <trkpt lat="49.29238" lon="-0.08469">
        <ele>72</ele>
        <time>2018-04-18T09:35:23Z</time>
      </trkpt>
      <trkpt lat="49.29246" lon="-0.08471">
        <ele>72</ele>
        <time>2018-04-18T09:35:30Z</time>
      </trkpt>
      <trkpt lat="49.29254" lon="-0.08471">
        <ele>67</ele>
        <time>2018-04-18T09:35:36Z</time>
      </trkpt>
      <trkpt lat="49.29262" lon="-0.08473">
        <ele>67</ele>
        <time>2018-04-18T09:35:42Z</time>
      </trkpt>
      <trkpt lat="49.2927" lon="-0.08475">
        <ele>67</ele>
        <time>2018-04-18T09:35:47Z</time>
      </trkpt>
      <trkpt lat="49.29278" lon="-0.08474">
        <ele>66</ele>
        <time>2018-04-18T09:35:53Z</time>
      </trkpt>
      <trkpt lat="49.29285" lon="-0.08475">
        <ele>66</ele>
        <time>2018-04-18T09:35:58Z</time>
      </trkpt>
      <trkpt lat="49.29293" lon="-0.08475">
        <ele>65</ele>
        <time>2018-04-18T09:36:04Z</time>
      </trkpt>
      <trkpt lat="49.29299" lon="-0.0848">
        <ele>65</ele>
        <time>2018-04-18T09:36:11Z</time>
      </trkpt>
      <trkpt lat="49.29307" lon="-0.08478">
        <ele>65</ele>
        <time>2018-04-18T09:36:17Z</time>
      </trkpt>
      <trkpt lat="49.29316" lon="-0.0848">
        <ele>64</ele>
        <time>2018-04-18T09:36:22Z</time>
      </trkpt>
      <trkpt lat="49.29324" lon="-0.08482">
        <ele>64</ele>
        <time>2018-04-18T09:36:27Z</time>
      </trkpt>
      <trkpt lat="49.29331" lon="-0.08485">
        <ele>64</ele>
        <time>2018-04-18T09:36:34Z</time>
      </trkpt>
      <trkpt lat="49.29339" lon="-0.08488">
        <ele>61</ele>
        <time>2018-04-18T09:36:40Z</time>
      </trkpt>
      <trkpt lat="49.29347" lon="-0.08489">
        <ele>60</ele>
        <time>2018-04-18T09:36:47Z</time>
      </trkpt>
      <trkpt lat="49.29354" lon="-0.08493">
        <ele>59</ele>
        <time>2018-04-18T09:36:54Z</time>
      </trkpt>
      <trkpt lat="49.29361" lon="-0.08495">
        <ele>58</ele>
        <time>2018-04-18T09:37:00Z</time>
      </trkpt>
      <trkpt lat="49.29369" lon="-0.08497">
        <ele>57</ele>
        <time>2018-04-18T09:37:06Z</time>
      </trkpt>
      <trkpt lat="49.29375" lon="-0.08501">
        <ele>64</ele>
        <time>2018-04-18T09:37:13Z</time>
      </trkpt>
      <trkpt lat="49.29383" lon="-0.08504">
        <ele>63</ele>
        <time>2018-04-18T09:37:20Z</time>
      </trkpt>
      <trkpt lat="49.29391" lon="-0.08505">
        <ele>62</ele>
        <time>2018-04-18T09:37:27Z</time>
      </trkpt>
      <trkpt lat="49.29399" lon="-0.08506">
        <ele>61</ele>
        <time>2018-04-18T09:37:32Z</time>
      </trkpt>
      <trkpt lat="49.29406" lon="-0.08511">
        <ele>60</ele>
        <time>2018-04-18T09:37:38Z</time>
      </trkpt>
      <trkpt lat="49.29413" lon="-0.08517">
        <ele>60</ele>
        <time>2018-04-18T09:37:44Z</time>
      </trkpt>
      <trkpt lat="49.2942" lon="-0.08522">
        <ele>55</ele>
        <time>2018-04-18T09:37:51Z</time>
      </trkpt>
      <trkpt lat="49.29428" lon="-0.08524">
        <ele>55</ele>
        <time>2018-04-18T09:37:57Z</time>
      </trkpt>
      <trkpt lat="49.29435" lon="-0.08527">
        <ele>56</ele>
        <time>2018-04-18T09:38:03Z</time>
      </trkpt>
      <trkpt lat="49.29442" lon="-0.08533">
        <ele>56</ele>
        <time>2018-04-18T09:38:09Z</time>
      </trkpt>
      <trkpt lat="49.29448" lon="-0.08534">
        <ele>56</ele>
        <time>2018-04-18T09:38:16Z</time>
      </trkpt>
      <trkpt lat="49.29451" lon="-0.08534">
        <ele>55</ele>
        <time>2018-04-18T09:38:23Z</time>
      </trkpt>
      <trkpt lat="49.29451" lon="-0.08534">
        <ele>55</ele>
        <time>2018-04-18T09:38:27Z</time>
      </trkpt>
      <trkpt lat="49.29458" lon="-0.08537">
        <ele>55</ele>
        <time>2018-04-18T09:38:37Z</time>
      </trkpt>
      <trkpt lat="49.29466" lon="-0.08542">
        <ele>55</ele>
        <time>2018-04-18T09:38:43Z</time>
      </trkpt>
      <trkpt lat="49.29471" lon="-0.08547">
        <ele>55</ele>
        <time>2018-04-18T09:38:50Z</time>
      </trkpt>
      <trkpt lat="49.29473" lon="-0.08549">
        <ele>55</ele>
        <time>2018-04-18T09:38:57Z</time>
      </trkpt>
      <trkpt lat="49.29473" lon="-0.08548">
        <ele>55</ele>
        <time>2018-04-18T09:39:03Z</time>
      </trkpt>
      <trkpt lat="49.29478" lon="-0.08551">
        <ele>55</ele>
        <time>2018-04-18T09:39:11Z</time>
      </trkpt>
      <trkpt lat="49.29486" lon="-0.08556">
        <ele>55</ele>
        <time>2018-04-18T09:39:18Z</time>
      </trkpt>
      <trkpt lat="49.29493" lon="-0.08559">
        <ele>55</ele>
        <time>2018-04-18T09:39:25Z</time>
      </trkpt>
      <trkpt lat="49.29498" lon="-0.08565">
        <ele>56</ele>
        <time>2018-04-18T09:39:32Z</time>
      </trkpt>
      <trkpt lat="49.29503" lon="-0.08571">
        <ele>53</ele>
        <time>2018-04-18T09:39:39Z</time>
      </trkpt>
      <trkpt lat="49.2951" lon="-0.08573">
        <ele>52</ele>
        <time>2018-04-18T09:39:44Z</time>
      </trkpt>
      <trkpt lat="49.29518" lon="-0.08574">
        <ele>51</ele>
        <time>2018-04-18T09:39:51Z</time>
      </trkpt>
      <trkpt lat="49.29525" lon="-0.08578">
        <ele>50</ele>
        <time>2018-04-18T09:39:57Z</time>
      </trkpt>
      <trkpt lat="49.29533" lon="-0.08578">
        <ele>49</ele>
        <time>2018-04-18T09:40:02Z</time>
      </trkpt>
      <trkpt lat="49.29541" lon="-0.08578">
        <ele>48</ele>
        <time>2018-04-18T09:40:09Z</time>
      </trkpt>
      <trkpt lat="49.29549" lon="-0.08577">
        <ele>47</ele>
        <time>2018-04-18T09:40:15Z</time>
      </trkpt>
      <trkpt lat="49.29556" lon="-0.08573">
        <ele>47</ele>
        <time>2018-04-18T09:40:19Z</time>
      </trkpt>
      <trkpt lat="49.29564" lon="-0.08569">
        <ele>46</ele>
        <time>2018-04-18T09:40:25Z</time>
      </trkpt>
      <trkpt lat="49.29565" lon="-0.08563">
        <ele>46</ele>
        <time>2018-04-18T09:40:32Z</time>
      </trkpt>
      <trkpt lat="49.29571" lon="-0.08556">
        <ele>46</ele>
        <time>2018-04-18T09:40:38Z</time>
      </trkpt>
      <trkpt lat="49.29577" lon="-0.08548">
        <ele>45</ele>
        <time>2018-04-18T09:40:43Z</time>
      </trkpt>
      <trkpt lat="49.29582" lon="-0.0854">
        <ele>45</ele>
        <time>2018-04-18T09:40:49Z</time>
      </trkpt>
      <trkpt lat="49.29584" lon="-0.08527">
        <ele>41</ele>
        <time>2018-04-18T09:40:54Z</time>
      </trkpt>
      <trkpt lat="49.29591" lon="-0.08519">
        <ele>41</ele>
        <time>2018-04-18T09:41:00Z</time>
      </trkpt>
      <trkpt lat="49.29596" lon="-0.08512">
        <ele>41</ele>
        <time>2018-04-18T09:41:07Z</time>
      </trkpt>
      <trkpt lat="49.29602" lon="-0.08503">
        <ele>41</ele>
        <time>2018-04-18T09:41:13Z</time>
      </trkpt>
      <trkpt lat="49.29607" lon="-0.08494">
        <ele>38</ele>
        <time>2018-04-18T09:41:19Z</time>
      </trkpt>
      <trkpt lat="49.29612" lon="-0.08486">
        <ele>38</ele>
        <time>2018-04-18T09:41:25Z</time>
      </trkpt>
      <trkpt lat="49.29617" lon="-0.08475">
        <ele>37</ele>
        <time>2018-04-18T09:41:32Z</time>
      </trkpt>
      <trkpt lat="49.29622" lon="-0.08467">
        <ele>37</ele>
        <time>2018-04-18T09:41:38Z</time>
      </trkpt>
      <trkpt lat="49.29627" lon="-0.0846">
        <ele>37</ele>
        <time>2018-04-18T09:41:45Z</time>
      </trkpt>
      <trkpt lat="49.29626" lon="-0.0846">
        <ele>37</ele>
        <time>2018-04-18T09:41:51Z</time>
      </trkpt>
      <trkpt lat="49.29632" lon="-0.08453">
        <ele>36</ele>
        <time>2018-04-18T09:42:08Z</time>
      </trkpt>
      <trkpt lat="49.29637" lon="-0.08448">
        <ele>36</ele>
        <time>2018-04-18T09:42:15Z</time>
      </trkpt>
      <trkpt lat="49.29643" lon="-0.08445">
        <ele>36</ele>
        <time>2018-04-18T09:42:22Z</time>
      </trkpt>
      <trkpt lat="49.29651" lon="-0.08444">
        <ele>36</ele>
        <time>2018-04-18T09:42:28Z</time>
      </trkpt>
      <trkpt lat="49.29659" lon="-0.08444">
        <ele>36</ele>
        <time>2018-04-18T09:42:33Z</time>
      </trkpt>
      <trkpt lat="49.29665" lon="-0.08447">
        <ele>36</ele>
        <time>2018-04-18T09:42:40Z</time>
      </trkpt>
      <trkpt lat="49.29673" lon="-0.0845">
        <ele>34</ele>
        <time>2018-04-18T09:42:45Z</time>
      </trkpt>
      <trkpt lat="49.29681" lon="-0.08451">
        <ele>33</ele>
        <time>2018-04-18T09:42:52Z</time>
      </trkpt>
      <trkpt lat="49.29689" lon="-0.08452">
        <ele>33</ele>
        <time>2018-04-18T09:42:58Z</time>
      </trkpt>
      <trkpt lat="49.29697" lon="-0.08452">
        <ele>33</ele>
        <time>2018-04-18T09:43:04Z</time>
      </trkpt>
      <trkpt lat="49.29705" lon="-0.08453">
        <ele>33</ele>
        <time>2018-04-18T09:43:10Z</time>
      </trkpt>
      <trkpt lat="49.29711" lon="-0.08453">
        <ele>32</ele>
        <time>2018-04-18T09:43:17Z</time>
      </trkpt>
      <trkpt lat="49.29716" lon="-0.08458">
        <ele>32</ele>
        <time>2018-04-18T09:43:24Z</time>
      </trkpt>
      <trkpt lat="49.29722" lon="-0.08457">
        <ele>32</ele>
        <time>2018-04-18T09:43:31Z</time>
      </trkpt>
      <trkpt lat="49.29728" lon="-0.08452">
        <ele>31</ele>
        <time>2018-04-18T09:43:38Z</time>
      </trkpt>
      <trkpt lat="49.29735" lon="-0.08447">
        <ele>31</ele>
        <time>2018-04-18T09:43:45Z</time>
      </trkpt>
      <trkpt lat="49.29743" lon="-0.08443">
        <ele>31</ele>
        <time>2018-04-18T09:43:50Z</time>
      </trkpt>
      <trkpt lat="49.2975" lon="-0.08438">
        <ele>30</ele>
        <time>2018-04-18T09:43:55Z</time>
      </trkpt>
      <trkpt lat="49.29757" lon="-0.08432">
        <ele>25</ele>
        <time>2018-04-18T09:44:02Z</time>
      </trkpt>
      <trkpt lat="49.29763" lon="-0.08426">
        <ele>25</ele>
        <time>2018-04-18T09:44:08Z</time>
      </trkpt>
      <trkpt lat="49.2977" lon="-0.08422">
        <ele>24</ele>
        <time>2018-04-18T09:44:13Z</time>
      </trkpt>
      <trkpt lat="49.29777" lon="-0.08415">
        <ele>23</ele>
        <time>2018-04-18T09:44:19Z</time>
      </trkpt>
      <trkpt lat="49.29783" lon="-0.08408">
        <ele>22</ele>
        <time>2018-04-18T09:44:25Z</time>
      </trkpt>
      <trkpt lat="49.29789" lon="-0.08401">
        <ele>22</ele>
        <time>2018-04-18T09:44:31Z</time>
      </trkpt>
      <trkpt lat="49.29796" lon="-0.08395">
        <ele>21</ele>
        <time>2018-04-18T09:44:38Z</time>
      </trkpt>
      <trkpt lat="49.29801" lon="-0.08388">
        <ele>21</ele>
        <time>2018-04-18T09:44:43Z</time>
      </trkpt>
      <trkpt lat="49.29809" lon="-0.08386">
        <ele>20</ele>
        <time>2018-04-18T09:44:50Z</time>
      </trkpt>
      <trkpt lat="49.29816" lon="-0.08382">
        <ele>20</ele>
        <time>2018-04-18T09:44:57Z</time>
      </trkpt>
      <trkpt lat="49.29823" lon="-0.08376">
        <ele>20</ele>
        <time>2018-04-18T09:45:02Z</time>
      </trkpt>
      <trkpt lat="49.2983" lon="-0.08371">
        <ele>20</ele>
        <time>2018-04-18T09:45:08Z</time>
      </trkpt>
      <trkpt lat="49.29837" lon="-0.08366">
        <ele>15</ele>
        <time>2018-04-18T09:45:14Z</time>
      </trkpt>
      <trkpt lat="49.2984" lon="-0.08365">
        <ele>15</ele>
        <time>2018-04-18T09:45:21Z</time>
      </trkpt>
      <trkpt lat="49.2984" lon="-0.08364">
        <ele>15</ele>
        <time>2018-04-18T09:45:23Z</time>
      </trkpt>
      <trkpt lat="49.29844" lon="-0.08375">
        <ele>15</ele>
        <time>2018-04-18T09:45:31Z</time>
      </trkpt>
      <trkpt lat="49.29848" lon="-0.08386">
        <ele>15</ele>
        <time>2018-04-18T09:45:38Z</time>
      </trkpt>
      <trkpt lat="49.2985" lon="-0.08397">
        <ele>15</ele>
        <time>2018-04-18T09:45:45Z</time>
      </trkpt>
      <trkpt lat="49.29853" lon="-0.08408">
        <ele>15</ele>
        <time>2018-04-18T09:45:51Z</time>
      </trkpt>
      <trkpt lat="49.29858" lon="-0.08417">
        <ele>14</ele>
        <time>2018-04-18T09:45:56Z</time>
      </trkpt>
      <trkpt lat="49.29864" lon="-0.08425">
        <ele>14</ele>
        <time>2018-04-18T09:46:03Z</time>
      </trkpt>
      <trkpt lat="49.29866" lon="-0.0843">
        <ele>14</ele>
        <time>2018-04-18T09:46:10Z</time>
      </trkpt>
      <trkpt lat="49.29869" lon="-0.08429">
        <ele>13</ele>
        <time>2018-04-18T09:46:17Z</time>
      </trkpt>
      <trkpt lat="49.29875" lon="-0.08428">
        <ele>13</ele>
        <time>2018-04-18T09:46:24Z</time>
      </trkpt>
      <trkpt lat="49.29882" lon="-0.08423">
        <ele>13</ele>
        <time>2018-04-18T09:46:30Z</time>
      </trkpt>
      <trkpt lat="49.29887" lon="-0.08419">
        <ele>12</ele>
        <time>2018-04-18T09:46:37Z</time>
      </trkpt>
      <trkpt lat="49.29889" lon="-0.08413">
        <ele>13</ele>
        <time>2018-04-18T09:46:44Z</time>
      </trkpt>
      <trkpt lat="49.29895" lon="-0.08407">
        <ele>12</ele>
        <time>2018-04-18T09:46:51Z</time>
      </trkpt>
      <trkpt lat="49.299" lon="-0.08402">
        <ele>12</ele>
        <time>2018-04-18T09:46:58Z</time>
      </trkpt>
      <trkpt lat="49.29902" lon="-0.08398">
        <ele>12</ele>
        <time>2018-04-18T09:47:05Z</time>
      </trkpt>
      <trkpt lat="49.29909" lon="-0.08394">
        <ele>12</ele>
        <time>2018-04-18T09:47:12Z</time>
      </trkpt>
      <trkpt lat="49.29914" lon="-0.08391">
        <ele>12</ele>
        <time>2018-04-18T09:47:19Z</time>
      </trkpt>
      <trkpt lat="49.29918" lon="-0.08391">
        <ele>9</ele>
        <time>2018-04-18T09:47:26Z</time>
      </trkpt>
      <trkpt lat="49.29923" lon="-0.08391">
        <ele>9</ele>
        <time>2018-04-18T09:47:33Z</time>
      </trkpt>
      <trkpt lat="49.29928" lon="-0.08396">
        <ele>9</ele>
        <time>2018-04-18T09:47:40Z</time>
      </trkpt>
      <trkpt lat="49.29936" lon="-0.08391">
        <ele>8</ele>
        <time>2018-04-18T09:47:46Z</time>
      </trkpt>
      <trkpt lat="49.29942" lon="-0.08387">
        <ele>8</ele>
        <time>2018-04-18T09:47:53Z</time>
      </trkpt>
      <trkpt lat="49.29945" lon="-0.08389">
        <ele>8</ele>
        <time>2018-04-18T09:48:00Z</time>
      </trkpt>
      <trkpt lat="49.29947" lon="-0.08381">
        <ele>8</ele>
        <time>2018-04-18T09:48:07Z</time>
      </trkpt>
      <trkpt lat="49.29945" lon="-0.08372">
        <ele>8</ele>
        <time>2018-04-18T09:48:14Z</time>
      </trkpt>
      <trkpt lat="49.2994" lon="-0.08363">
        <ele>8</ele>
        <time>2018-04-18T09:48:20Z</time>
      </trkpt>
      <trkpt lat="49.29936" lon="-0.08354">
        <ele>9</ele>
        <time>2018-04-18T09:48:26Z</time>
      </trkpt>
      <trkpt lat="49.29933" lon="-0.08343">
        <ele>9</ele>
        <time>2018-04-18T09:48:33Z</time>
      </trkpt>
      <trkpt lat="49.29928" lon="-0.08335">
        <ele>10</ele>
        <time>2018-04-18T09:48:40Z</time>
      </trkpt>
      <trkpt lat="49.29925" lon="-0.08327">
        <ele>10</ele>
        <time>2018-04-18T09:48:47Z</time>
      </trkpt>
      <trkpt lat="49.2992" lon="-0.08319">
        <ele>10</ele>
        <time>2018-04-18T09:48:53Z</time>
      </trkpt>
      <trkpt lat="49.29918" lon="-0.08307">
        <ele>9</ele>
        <time>2018-04-18T09:48:58Z</time>
      </trkpt>
      <trkpt lat="49.29917" lon="-0.08297">
        <ele>12</ele>
        <time>2018-04-18T09:49:05Z</time>
      </trkpt>
      <trkpt lat="49.29916" lon="-0.08291">
        <ele>12</ele>
        <time>2018-04-18T09:49:12Z</time>
      </trkpt>
      <trkpt lat="49.29924" lon="-0.08287">
        <ele>9</ele>
        <time>2018-04-18T09:49:18Z</time>
      </trkpt>
      <trkpt lat="49.2993" lon="-0.08277">
        <ele>8</ele>
        <time>2018-04-18T09:49:25Z</time>
      </trkpt>
      <trkpt lat="49.29935" lon="-0.08267">
        <ele>8</ele>
        <time>2018-04-18T09:49:32Z</time>
      </trkpt>
      <trkpt lat="49.29942" lon="-0.0826">
        <ele>8</ele>
        <time>2018-04-18T09:49:38Z</time>
      </trkpt>
      <trkpt lat="49.29948" lon="-0.08255">
        <ele>8</ele>
        <time>2018-04-18T09:49:45Z</time>
      </trkpt>
      <trkpt lat="49.29952" lon="-0.0825">
        <ele>8</ele>
        <time>2018-04-18T09:49:52Z</time>
      </trkpt>
      <trkpt lat="49.2995" lon="-0.08239">
        <ele>7</ele>
        <time>2018-04-18T09:49:59Z</time>
      </trkpt>
      <trkpt lat="49.2995" lon="-0.08239">
        <ele>7</ele>
        <time>2018-04-18T09:50:06Z</time>
      </trkpt>
      <trkpt lat="49.29951" lon="-0.08245">
        <ele>7</ele>
        <time>2018-04-18T09:50:13Z</time>
      </trkpt>
      <trkpt lat="49.29948" lon="-0.08248">
        <ele>7</ele>
        <time>2018-04-18T09:50:20Z</time>
      </trkpt>
      <trkpt lat="49.29943" lon="-0.08253">
        <ele>8</ele>
        <time>2018-04-18T09:50:27Z</time>
      </trkpt>
      <trkpt lat="49.29936" lon="-0.08259">
        <ele>8</ele>
        <time>2018-04-18T09:50:33Z</time>
      </trkpt>
      <trkpt lat="49.2993" lon="-0.08265">
        <ele>9</ele>
        <time>2018-04-18T09:50:40Z</time>
      </trkpt>
      <trkpt lat="49.29924" lon="-0.08275">
        <ele>9</ele>
        <time>2018-04-18T09:50:47Z</time>
      </trkpt>
      <trkpt lat="49.29921" lon="-0.08284">
        <ele>9</ele>
        <time>2018-04-18T09:50:53Z</time>
      </trkpt>
      <trkpt lat="49.29915" lon="-0.0829">
        <ele>12</ele>
        <time>2018-04-18T09:51:00Z</time>
      </trkpt>
      <trkpt lat="49.29909" lon="-0.08285">
        <ele>12</ele>
        <time>2018-04-18T09:51:07Z</time>
      </trkpt>
      <trkpt lat="49.29905" lon="-0.08278">
        <ele>12</ele>
        <time>2018-04-18T09:51:14Z</time>
      </trkpt>
      <trkpt lat="49.29901" lon="-0.08267">
        <ele>12</ele>
        <time>2018-04-18T09:51:21Z</time>
      </trkpt>
      <trkpt lat="49.29897" lon="-0.08258">
        <ele>12</ele>
        <time>2018-04-18T09:51:28Z</time>
      </trkpt>
      <trkpt lat="49.29892" lon="-0.08251">
        <ele>12</ele>
        <time>2018-04-18T09:51:35Z</time>
      </trkpt>
      <trkpt lat="49.29887" lon="-0.08241">
        <ele>11</ele>
        <time>2018-04-18T09:51:40Z</time>
      </trkpt>
      <trkpt lat="49.29881" lon="-0.08234">
        <ele>11</ele>
        <time>2018-04-18T09:51:46Z</time>
      </trkpt>
      <trkpt lat="49.29876" lon="-0.08227">
        <ele>11</ele>
        <time>2018-04-18T09:51:52Z</time>
      </trkpt>
      <trkpt lat="49.29869" lon="-0.08219">
        <ele>12</ele>
        <time>2018-04-18T09:51:58Z</time>
      </trkpt>
      <trkpt lat="49.29865" lon="-0.08211">
        <ele>12</ele>
        <time>2018-04-18T09:52:05Z</time>
      </trkpt>
      <trkpt lat="49.29863" lon="-0.082">
        <ele>12</ele>
        <time>2018-04-18T09:52:11Z</time>
      </trkpt>
      <trkpt lat="49.29867" lon="-0.08189">
        <ele>11</ele>
        <time>2018-04-18T09:52:18Z</time>
      </trkpt>
      <trkpt lat="49.29868" lon="-0.08179">
        <ele>11</ele>
        <time>2018-04-18T09:52:25Z</time>
      </trkpt>
      <trkpt lat="49.29873" lon="-0.0817">
        <ele>11</ele>
        <time>2018-04-18T09:52:31Z</time>
      </trkpt>
      <trkpt lat="49.29877" lon="-0.08169">
        <ele>11</ele>
        <time>2018-04-18T09:52:38Z</time>
      </trkpt>
      <trkpt lat="49.29884" lon="-0.08163">
        <ele>9</ele>
        <time>2018-04-18T09:52:44Z</time>
      </trkpt>
      <trkpt lat="49.2989" lon="-0.08158">
        <ele>9</ele>
        <time>2018-04-18T09:52:49Z</time>
      </trkpt>
      <trkpt lat="49.29898" lon="-0.08156">
        <ele>9</ele>
        <time>2018-04-18T09:52:56Z</time>
      </trkpt>
      <trkpt lat="49.29904" lon="-0.0815">
        <ele>8</ele>
        <time>2018-04-18T09:53:03Z</time>
      </trkpt>
      <trkpt lat="49.29911" lon="-0.08144">
        <ele>8</ele>
        <time>2018-04-18T09:53:09Z</time>
      </trkpt>
      <trkpt lat="49.29915" lon="-0.08136">
        <ele>9</ele>
        <time>2018-04-18T09:53:16Z</time>
      </trkpt>
      <trkpt lat="49.29921" lon="-0.08129">
        <ele>7</ele>
        <time>2018-04-18T09:53:20Z</time>
      </trkpt>
      <trkpt lat="49.29927" lon="-0.08121">
        <ele>7</ele>
        <time>2018-04-18T09:53:26Z</time>
      </trkpt>
      <trkpt lat="49.29935" lon="-0.08116">
        <ele>7</ele>
        <time>2018-04-18T09:53:31Z</time>
      </trkpt>
      <trkpt lat="49.29942" lon="-0.0811">
        <ele>7</ele>
        <time>2018-04-18T09:53:36Z</time>
      </trkpt>
      <trkpt lat="49.29948" lon="-0.08104">
        <ele>7</ele>
        <time>2018-04-18T09:53:42Z</time>
      </trkpt>
      <trkpt lat="49.29955" lon="-0.08098">
        <ele>7</ele>
        <time>2018-04-18T09:53:47Z</time>
      </trkpt>
      <trkpt lat="49.29961" lon="-0.08092">
        <ele>7</ele>
        <time>2018-04-18T09:53:53Z</time>
      </trkpt>
      <trkpt lat="49.29968" lon="-0.08087">
        <ele>7</ele>
        <time>2018-04-18T09:53:59Z</time>
      </trkpt>
      <trkpt lat="49.29972" lon="-0.08079">
        <ele>8</ele>
        <time>2018-04-18T09:54:06Z</time>
      </trkpt>
      <trkpt lat="49.29976" lon="-0.08074">
        <ele>8</ele>
        <time>2018-04-18T09:54:13Z</time>
      </trkpt>
      <trkpt lat="49.29982" lon="-0.0807">
        <ele>8</ele>
        <time>2018-04-18T09:54:19Z</time>
      </trkpt>
      <trkpt lat="49.29989" lon="-0.08063">
        <ele>8</ele>
        <time>2018-04-18T09:54:25Z</time>
      </trkpt>
      <trkpt lat="49.29994" lon="-0.08059">
        <ele>8</ele>
        <time>2018-04-18T09:54:32Z</time>
      </trkpt>
      <trkpt lat="49.30002" lon="-0.08055">
        <ele>7</ele>
        <time>2018-04-18T09:54:39Z</time>
      </trkpt>
      <trkpt lat="49.30008" lon="-0.08048">
        <ele>7</ele>
        <time>2018-04-18T09:54:46Z</time>
      </trkpt>
      <trkpt lat="49.30015" lon="-0.08042">
        <ele>8</ele>
        <time>2018-04-18T09:54:52Z</time>
      </trkpt>
      <trkpt lat="49.30022" lon="-0.08035">
        <ele>8</ele>
        <time>2018-04-18T09:54:59Z</time>
      </trkpt>
      <trkpt lat="49.30028" lon="-0.08034">
        <ele>8</ele>
        <time>2018-04-18T09:55:06Z</time>
      </trkpt>
      <trkpt lat="49.30036" lon="-0.08029">
        <ele>8</ele>
        <time>2018-04-18T09:55:13Z</time>
      </trkpt>
      <trkpt lat="49.30038" lon="-0.08023">
        <ele>8</ele>
        <time>2018-04-18T09:55:20Z</time>
      </trkpt>
      <trkpt lat="49.30044" lon="-0.08024">
        <ele>8</ele>
        <time>2018-04-18T09:55:27Z</time>
      </trkpt>
      <trkpt lat="49.30049" lon="-0.08029">
        <ele>8</ele>
        <time>2018-04-18T09:55:34Z</time>
      </trkpt>
      <trkpt lat="49.30058" lon="-0.08031">
        <ele>8</ele>
        <time>2018-04-18T09:55:40Z</time>
      </trkpt>
      <trkpt lat="49.30064" lon="-0.08036">
        <ele>8</ele>
        <time>2018-04-18T09:55:45Z</time>
      </trkpt>
      <trkpt lat="49.30071" lon="-0.08036">
        <ele>8</ele>
        <time>2018-04-18T09:55:52Z</time>
      </trkpt>
      <trkpt lat="49.30077" lon="-0.08028">
        <ele>8</ele>
        <time>2018-04-18T09:55:58Z</time>
      </trkpt>
      <trkpt lat="49.30081" lon="-0.0802">
        <ele>8</ele>
        <time>2018-04-18T09:56:05Z</time>
      </trkpt>
      <trkpt lat="49.30083" lon="-0.08008">
        <ele>8</ele>
        <time>2018-04-18T09:56:11Z</time>
      </trkpt>
      <trkpt lat="49.30087" lon="-0.08">
        <ele>8</ele>
        <time>2018-04-18T09:56:18Z</time>
      </trkpt>
      <trkpt lat="49.30092" lon="-0.07993">
        <ele>9</ele>
        <time>2018-04-18T09:56:24Z</time>
      </trkpt>
      <trkpt lat="49.30097" lon="-0.07982">
        <ele>9</ele>
        <time>2018-04-18T09:56:30Z</time>
      </trkpt>
      <trkpt lat="49.30103" lon="-0.07974">
        <ele>9</ele>
        <time>2018-04-18T09:56:36Z</time>
      </trkpt>
      <trkpt lat="49.30108" lon="-0.07964">
        <ele>10</ele>
        <time>2018-04-18T09:56:42Z</time>
      </trkpt>
      <trkpt lat="49.30115" lon="-0.0796">
        <ele>10</ele>
        <time>2018-04-18T09:56:48Z</time>
      </trkpt>
      <trkpt lat="49.30119" lon="-0.07952">
        <ele>10</ele>
        <time>2018-04-18T09:56:54Z</time>
      </trkpt>
      <trkpt lat="49.30121" lon="-0.07947">
        <ele>10</ele>
        <time>2018-04-18T09:57:01Z</time>
      </trkpt>
      <trkpt lat="49.30127" lon="-0.07939">
        <ele>10</ele>
        <time>2018-04-18T09:57:07Z</time>
      </trkpt>
      <trkpt lat="49.30132" lon="-0.07928">
        <ele>10</ele>
        <time>2018-04-18T09:57:14Z</time>
      </trkpt>
      <trkpt lat="49.30136" lon="-0.07919">
        <ele>10</ele>
        <time>2018-04-18T09:57:20Z</time>
      </trkpt>
      <trkpt lat="49.30142" lon="-0.07911">
        <ele>11</ele>
        <time>2018-04-18T09:57:26Z</time>
      </trkpt>
      <trkpt lat="49.30146" lon="-0.07901">
        <ele>11</ele>
        <time>2018-04-18T09:57:33Z</time>
      </trkpt>
      <trkpt lat="49.30152" lon="-0.07891">
        <ele>11</ele>
        <time>2018-04-18T09:57:40Z</time>
      </trkpt>
      <trkpt lat="49.30158" lon="-0.07884">
        <ele>11</ele>
        <time>2018-04-18T09:57:46Z</time>
      </trkpt>
      <trkpt lat="49.3016" lon="-0.07882">
        <ele>11</ele>
        <time>2018-04-18T09:57:53Z</time>
      </trkpt>
      <trkpt lat="49.30164" lon="-0.07872">
        <ele>10</ele>
        <time>2018-04-18T09:57:59Z</time>
      </trkpt>
      <trkpt lat="49.30169" lon="-0.07864">
        <ele>10</ele>
        <time>2018-04-18T09:58:05Z</time>
      </trkpt>
      <trkpt lat="49.30173" lon="-0.07854">
        <ele>10</ele>
        <time>2018-04-18T09:58:12Z</time>
      </trkpt>
      <trkpt lat="49.30175" lon="-0.07851">
        <ele>10</ele>
        <time>2018-04-18T09:58:19Z</time>
      </trkpt>
      <trkpt lat="49.30178" lon="-0.07843">
        <ele>10</ele>
        <time>2018-04-18T09:58:26Z</time>
      </trkpt>
      <trkpt lat="49.30184" lon="-0.07835">
        <ele>10</ele>
        <time>2018-04-18T09:58:33Z</time>
      </trkpt>
      <trkpt lat="49.30189" lon="-0.07825">
        <ele>10</ele>
        <time>2018-04-18T09:58:40Z</time>
      </trkpt>
      <trkpt lat="49.30193" lon="-0.07816">
        <ele>10</ele>
        <time>2018-04-18T09:58:47Z</time>
      </trkpt>
      <trkpt lat="49.30199" lon="-0.07809">
        <ele>11</ele>
        <time>2018-04-18T09:58:54Z</time>
      </trkpt>
      <trkpt lat="49.30204" lon="-0.07802">
        <ele>11</ele>
        <time>2018-04-18T09:58:59Z</time>
      </trkpt>
      <trkpt lat="49.30208" lon="-0.07792">
        <ele>11</ele>
        <time>2018-04-18T09:59:06Z</time>
      </trkpt>
      <trkpt lat="49.30204" lon="-0.07783">
        <ele>11</ele>
        <time>2018-04-18T09:59:12Z</time>
      </trkpt>
      <trkpt lat="49.30204" lon="-0.07784">
        <ele>11</ele>
        <time>2018-04-18T09:59:19Z</time>
      </trkpt>
      <trkpt lat="49.30205" lon="-0.07786">
        <ele>11</ele>
        <time>2018-04-18T09:59:26Z</time>
      </trkpt>
      <trkpt lat="49.30205" lon="-0.07786">
        <ele>11</ele>
        <time>2018-04-18T09:59:27Z</time>
      </trkpt>
      <trkpt lat="49.30202" lon="-0.0778">
        <ele>11</ele>
        <time>2018-04-18T09:59:40Z</time>
      </trkpt>
      <trkpt lat="49.30201" lon="-0.07779">
        <ele>11</ele>
        <time>2018-04-18T09:59:47Z</time>
      </trkpt>
      <trkpt lat="49.30201" lon="-0.07779">
        <ele>11</ele>
        <time>2018-04-18T09:59:48Z</time>
      </trkpt>
      <trkpt lat="49.30201" lon="-0.07779">
        <ele>11</ele>
        <time>2018-04-18T09:59:59Z</time>
      </trkpt>
      <trkpt lat="49.30201" lon="-0.07779">
        <ele>11</ele>
        <time>2018-04-18T10:00:00Z</time>
      </trkpt>
      <trkpt lat="49.30201" lon="-0.07774">
        <ele>11</ele>
        <time>2018-04-18T10:00:52Z</time>
      </trkpt>
      <trkpt lat="49.30201" lon="-0.07774">
        <ele>11</ele>
        <time>2018-04-18T10:00:54Z</time>
      </trkpt>
      <trkpt lat="49.30202" lon="-0.07775">
        <ele>11</ele>
        <time>2018-04-18T10:01:04Z</time>
      </trkpt>
      <trkpt lat="49.30202" lon="-0.07775">
        <ele>11</ele>
        <time>2018-04-18T10:01:08Z</time>
      </trkpt>
      <trkpt lat="49.30201" lon="-0.07773">
        <ele>11</ele>
        <time>2018-04-18T10:01:17Z</time>
      </trkpt>
      <trkpt lat="49.30205" lon="-0.07773">
        <ele>11</ele>
        <time>2018-04-18T10:01:25Z</time>
      </trkpt>
      <trkpt lat="49.30204" lon="-0.07774">
        <ele>11</ele>
        <time>2018-04-18T10:01:30Z</time>
      </trkpt>
    </trkseg>
  </trk>
</gpx>